Missouri River (Missouri), Boonville (06909000)

StateMissouriLatestUnknown (89100 cfs)
RiverMissouri RiverRatingObservedEstimated
Updated2020-08-07 12:30 (40 minutes ago)Flood - The river is flooding. Obstacles can be treacherous or deadly. The river should be avoided at this stage for casual trips and definitely for the inexperienced. Trips should be attempted only with protective gear and equipment.Flood(none)(none)
Discharge89100 cfs (median: 62200 cfs)High - The river is high and potentially dangerous, especially for the young and / or inexperienced. Normal stream obstacles are sometimes difficult to navigate. Extended distances can be attempted, but canoe travel may not be advisable.High(none)(none)
Height13.73 feetGood - Conditions are ideal for a canoe or kayak. Boats typically will drag on fewer than one-quarter of riffles, if at all, and portages are unnecessary or rare. Normal float lengths can be attempted without a problem.Good(none)(none)
TrendSteady (falling over 24 hours)Low - River is low but can still be floated. Some riffles are okay but most come with significant dragging and might need a portage. Float lengths should be reduced to accommodate low flow, dragging, and portages.Low(none)(none)
USGSExternal icon USGS Site (External icon Google Maps)Poor - River is too low to float comfortably. Most or all riffles will drag or must be portaged and some obstacles (such as slick shelf rock) cause undue problems. Avoid the river at this stage for casual paddling trips.Poor(none)(none)

Trending Data

Plot Image

Trips for Missouri River (Missouri), Boonville (06909000)

DateStartEndDistanceConditionDischargeHeightFishingDetails

A total of 0 rows are displayed.

Condition Descriptions

Fishing Conditions

Fish Species

Notes

Classic Trip List

The classic River Trips application is still available for use. It is updated with the new system using a data retrofit. It is no longer maintained. The original River Trips application is no longer updated (as of 1 Dec 2016) but can be checked for errors or for the condition of the data before it was converted to the new system.

Gauge Data Table

ObservationHeightDischargeMaximum
Discharge
Minimum
Discharge
Mean
Discharge
P05P10P20P25P50
(Median)
P75P80P90P95
2020-08-07 12:30 13.73 89100 269000 (1993) 31500 (2002) 70500 35800 36500 42800 46700 62200 83700 87500 106000 135000
2020-08-07 11:30 13.73 89100 269000 (1993) 31500 (2002) 70500 35800 36500 42800 46700 62200 83700 87500 106000 135000
2020-08-07 10:30 13.76 89400 269000 (1993) 31500 (2002) 70500 35800 36500 42800 46700 62200 83700 87500 106000 135000
2020-08-07 09:30 13.74 89200 269000 (1993) 31500 (2002) 70500 35800 36500 42800 46700 62200 83700 87500 106000 135000
2020-08-07 08:30 13.78 89500 269000 (1993) 31500 (2002) 70500 35800 36500 42800 46700 62200 83700 87500 106000 135000
2020-08-07 07:30 13.72 89000 269000 (1993) 31500 (2002) 70500 35800 36500 42800 46700 62200 83700 87500 106000 135000
2020-08-07 06:30 13.72 89000 269000 (1993) 31500 (2002) 70500 35800 36500 42800 46700 62200 83700 87500 106000 135000
2020-08-07 05:30 13.77 89500 269000 (1993) 31500 (2002) 70500 35800 36500 42800 46700 62200 83700 87500 106000 135000
2020-08-07 04:30 13.72 89000 269000 (1993) 31500 (2002) 70500 35800 36500 42800 46700 62200 83700 87500 106000 135000
2020-08-07 03:30 13.73 89100 269000 (1993) 31500 (2002) 70500 35800 36500 42800 46700 62200 83700 87500 106000 135000
2020-08-07 02:30 13.73 89100 269000 (1993) 31500 (2002) 70500 35800 36500 42800 46700 62200 83700 87500 106000 135000
2020-08-07 01:30 13.76 89400 269000 (1993) 31500 (2002) 70500 35800 36500 42800 46700 62200 83700 87500 106000 135000
2020-08-07 00:30 13.71 88900 269000 (1993) 31500 (2002) 70500 35800 36500 42800 46700 62200 83700 87500 106000 135000
2020-08-06 23:30 13.73 89100 289000 (1993) 31700 (2002) 71400 35700 37000 43200 45600 58400 84600 85500 121000 150000
2020-08-06 22:30 13.69 88700 289000 (1993) 31700 (2002) 71400 35700 37000 43200 45600 58400 84600 85500 121000 150000
2020-08-06 21:30 13.73 89100 289000 (1993) 31700 (2002) 71400 35700 37000 43200 45600 58400 84600 85500 121000 150000
2020-08-06 20:30 13.70 88800 289000 (1993) 31700 (2002) 71400 35700 37000 43200 45600 58400 84600 85500 121000 150000
2020-08-06 19:30 13.73 89100 289000 (1993) 31700 (2002) 71400 35700 37000 43200 45600 58400 84600 85500 121000 150000
2020-08-06 18:30 13.75 89300 289000 (1993) 31700 (2002) 71400 35700 37000 43200 45600 58400 84600 85500 121000 150000
2020-08-06 17:30 13.77 89500 289000 (1993) 31700 (2002) 71400 35700 37000 43200 45600 58400 84600 85500 121000 150000
2020-08-06 16:30 13.80 89700 289000 (1993) 31700 (2002) 71400 35700 37000 43200 45600 58400 84600 85500 121000 150000
2020-08-06 15:30 13.72 92400 289000 (1993) 31700 (2002) 71400 35700 37000 43200 45600 58400 84600 85500 121000 150000
2020-08-06 14:30 13.79 93100 289000 (1993) 31700 (2002) 71400 35700 37000 43200 45600 58400 84600 85500 121000 150000
2020-08-06 13:30 13.85 93600 289000 (1993) 31700 (2002) 71400 35700 37000 43200 45600 58400 84600 85500 121000 150000
2020-08-06 12:30 13.86 93700 289000 (1993) 31700 (2002) 71400 35700 37000 43200 45600 58400 84600 85500 121000 150000
2020-08-06 11:30 13.89 94000 289000 (1993) 31700 (2002) 71400 35700 37000 43200 45600 58400 84600 85500 121000 150000
2020-08-06 10:30 13.89 94000 289000 (1993) 31700 (2002) 71400 35700 37000 43200 45600 58400 84600 85500 121000 150000
2020-08-06 09:30 13.91 94200 289000 (1993) 31700 (2002) 71400 35700 37000 43200 45600 58400 84600 85500 121000 150000
2020-08-06 08:30 13.96 94700 289000 (1993) 31700 (2002) 71400 35700 37000 43200 45600 58400 84600 85500 121000 150000
2020-08-06 07:30 13.91 94200 289000 (1993) 31700 (2002) 71400 35700 37000 43200 45600 58400 84600 85500 121000 150000
2020-08-06 06:30 14.01 95100 289000 (1993) 31700 (2002) 71400 35700 37000 43200 45600 58400 84600 85500 121000 150000
2020-08-06 05:30 14.00 95000 289000 (1993) 31700 (2002) 71400 35700 37000 43200 45600 58400 84600 85500 121000 150000
2020-08-06 04:30 14.06 95600 289000 (1993) 31700 (2002) 71400 35700 37000 43200 45600 58400 84600 85500 121000 150000
2020-08-06 03:30 14.02 95200 289000 (1993) 31700 (2002) 71400 35700 37000 43200 45600 58400 84600 85500 121000 150000
2020-08-06 02:30 14.09 95900 289000 (1993) 31700 (2002) 71400 35700 37000 43200 45600 58400 84600 85500 121000 150000
2020-08-06 01:30 14.12 96200 289000 (1993) 31700 (2002) 71400 35700 37000 43200 45600 58400 84600 85500 121000 150000
2020-08-06 00:30 14.19 96800 289000 (1993) 31700 (2002) 71400 35700 37000 43200 45600 58400 84600 85500 121000 150000
2020-08-05 23:30 14.20 96900 311000 (1993) 32200 (2002) 73000 35900 37400 42500 43600 55200 85500 91400 122000 193000
2020-08-05 22:30 14.20 96900 311000 (1993) 32200 (2002) 73000 35900 37400 42500 43600 55200 85500 91400 122000 193000
2020-08-05 21:30 14.19 96800 311000 (1993) 32200 (2002) 73000 35900 37400 42500 43600 55200 85500 91400 122000 193000
2020-08-05 20:30 14.33 98200 311000 (1993) 32200 (2002) 73000 35900 37400 42500 43600 55200 85500 91400 122000 193000
2020-08-05 19:30 14.30 97900 311000 (1993) 32200 (2002) 73000 35900 37400 42500 43600 55200 85500 91400 122000 193000
2020-08-05 18:30 14.38 98600 311000 (1993) 32200 (2002) 73000 35900 37400 42500 43600 55200 85500 91400 122000 193000
2020-08-05 17:30 14.36 98500 311000 (1993) 32200 (2002) 73000 35900 37400 42500 43600 55200 85500 91400 122000 193000
2020-08-05 16:30 14.35 98400 311000 (1993) 32200 (2002) 73000 35900 37400 42500 43600 55200 85500 91400 122000 193000
2020-08-05 15:30 14.51 99900 311000 (1993) 32200 (2002) 73000 35900 37400 42500 43600 55200 85500 91400 122000 193000
2020-08-05 14:30 14.54 100000 311000 (1993) 32200 (2002) 73000 35900 37400 42500 43600 55200 85500 91400 122000 193000
2020-08-05 13:30 14.55 100000 311000 (1993) 32200 (2002) 73000 35900 37400 42500 43600 55200 85500 91400 122000 193000
2020-08-05 12:30 14.60 101000 311000 (1993) 32200 (2002) 73000 35900 37400 42500 43600 55200 85500 91400 122000 193000
2020-08-05 11:30 14.64 101000 311000 (1993) 32200 (2002) 73000 35900 37400 42500 43600 55200 85500 91400 122000 193000
2020-08-05 10:30 14.66 101000 311000 (1993) 32200 (2002) 73000 35900 37400 42500 43600 55200 85500 91400 122000 193000
2020-08-05 09:30 14.73 102000 311000 (1993) 32200 (2002) 73000 35900 37400 42500 43600 55200 85500 91400 122000 193000
2020-08-05 08:30 14.77 102000 311000 (1993) 32200 (2002) 73000 35900 37400 42500 43600 55200 85500 91400 122000 193000
2020-08-05 07:30 14.82 103000 311000 (1993) 32200 (2002) 73000 35900 37400 42500 43600 55200 85500 91400 122000 193000
2020-08-05 06:30 14.88 104000 311000 (1993) 32200 (2002) 73000 35900 37400 42500 43600 55200 85500 91400 122000 193000
2020-08-05 05:30 14.88 104000 311000 (1993) 32200 (2002) 73000 35900 37400 42500 43600 55200 85500 91400 122000 193000
2020-08-05 04:30 14.93 104000 311000 (1993) 32200 (2002) 73000 35900 37400 42500 43600 55200 85500 91400 122000 193000
2020-08-05 03:30 15.00 105000 311000 (1993) 32200 (2002) 73000 35900 37400 42500 43600 55200 85500 91400 122000 193000
2020-08-05 02:30 15.05 105000 311000 (1993) 32200 (2002) 73000 35900 37400 42500 43600 55200 85500 91400 122000 193000
2020-08-05 01:30 15.09 106000 311000 (1993) 32200 (2002) 73000 35900 37400 42500 43600 55200 85500 91400 122000 193000
2020-08-05 00:30 15.10 106000 311000 (1993) 32200 (2002) 73000 35900 37400 42500 43600 55200 85500 91400 122000 193000
2020-08-04 23:30 15.19 107000 340000 (1993) 32800 (2002) 74900 36400 37200 42200 43200 56600 87200 101000 127000 209000
2020-08-04 22:30 15.22 107000 340000 (1993) 32800 (2002) 74900 36400 37200 42200 43200 56600 87200 101000 127000 209000
2020-08-04 21:30 15.26 107000 340000 (1993) 32800 (2002) 74900 36400 37200 42200 43200 56600 87200 101000 127000 209000
2020-08-04 20:30 15.32 108000 340000 (1993) 32800 (2002) 74900 36400 37200 42200 43200 56600 87200 101000 127000 209000
2020-08-04 19:30 15.37 109000 340000 (1993) 32800 (2002) 74900 36400 37200 42200 43200 56600 87200 101000 127000 209000
2020-08-04 18:30 15.40 109000 340000 (1993) 32800 (2002) 74900 36400 37200 42200 43200 56600 87200 101000 127000 209000
2020-08-04 17:30 15.47 110000 340000 (1993) 32800 (2002) 74900 36400 37200 42200 43200 56600 87200 101000 127000 209000
2020-08-04 16:30 15.52 110000 340000 (1993) 32800 (2002) 74900 36400 37200 42200 43200 56600 87200 101000 127000 209000
2020-08-04 15:30 15.52 110000 340000 (1993) 32800 (2002) 74900 36400 37200 42200 43200 56600 87200 101000 127000 209000
2020-08-04 14:30 15.56 111000 340000 (1993) 32800 (2002) 74900 36400 37200 42200 43200 56600 87200 101000 127000 209000
2020-08-04 13:30 15.66 112000 340000 (1993) 32800 (2002) 74900 36400 37200 42200 43200 56600 87200 101000 127000 209000
2020-08-04 12:30 15.68 112000 340000 (1993) 32800 (2002) 74900 36400 37200 42200 43200 56600 87200 101000 127000 209000
2020-08-04 11:30 15.76 113000 340000 (1993) 32800 (2002) 74900 36400 37200 42200 43200 56600 87200 101000 127000 209000
2020-08-04 10:30 15.81 113000 340000 (1993) 32800 (2002) 74900 36400 37200 42200 43200 56600 87200 101000 127000 209000
2020-08-04 09:30 15.87 114000 340000 (1993) 32800 (2002) 74900 36400 37200 42200 43200 56600 87200 101000 127000 209000
2020-08-04 08:30 15.93 114000 340000 (1993) 32800 (2002) 74900 36400 37200 42200 43200 56600 87200 101000 127000 209000
2020-08-04 07:30 15.98 115000 340000 (1993) 32800 (2002) 74900 36400 37200 42200 43200 56600 87200 101000 127000 209000
2020-08-04 06:30 16.04 116000 340000 (1993) 32800 (2002) 74900 36400 37200 42200 43200 56600 87200 101000 127000 209000
2020-08-04 05:30 16.07 116000 340000 (1993) 32800 (2002) 74900 36400 37200 42200 43200 56600 87200 101000 127000 209000
2020-08-04 04:30 16.13 117000 340000 (1993) 32800 (2002) 74900 36400 37200 42200 43200 56600 87200 101000 127000 209000
2020-08-04 03:30 16.18 117000 340000 (1993) 32800 (2002) 74900 36400 37200 42200 43200 56600 87200 101000 127000 209000
2020-08-04 02:30 16.27 118000 340000 (1993) 32800 (2002) 74900 36400 37200 42200 43200 56600 87200 101000 127000 209000
2020-08-04 01:30 16.33 119000 340000 (1993) 32800 (2002) 74900 36400 37200 42200 43200 56600 87200 101000 127000 209000
2020-08-04 00:30 16.40 120000 340000 (1993) 32800 (2002) 74900 36400 37200 42200 43200 56600 87200 101000 127000 209000
2020-08-03 23:30 16.48 121000 387000 (1993) 33500 (2002) 76500 36000 37700 42100 43100 57200 87200 96100 141000 211000
2020-08-03 22:30 16.54 121000 387000 (1993) 33500 (2002) 76500 36000 37700 42100 43100 57200 87200 96100 141000 211000
2020-08-03 21:30 16.61 122000 387000 (1993) 33500 (2002) 76500 36000 37700 42100 43100 57200 87200 96100 141000 211000
2020-08-03 20:30 16.70 123000 387000 (1993) 33500 (2002) 76500 36000 37700 42100 43100 57200 87200 96100 141000 211000
2020-08-03 19:30 16.77 124000 387000 (1993) 33500 (2002) 76500 36000 37700 42100 43100 57200 87200 96100 141000 211000
2020-08-03 18:30 16.87 125000 387000 (1993) 33500 (2002) 76500 36000 37700 42100 43100 57200 87200 96100 141000 211000
2020-08-03 17:30 16.95 126000 387000 (1993) 33500 (2002) 76500 36000 37700 42100 43100 57200 87200 96100 141000 211000
2020-08-03 16:30 17.01 127000 387000 (1993) 33500 (2002) 76500 36000 37700 42100 43100 57200 87200 96100 141000 211000
2020-08-03 15:30 17.11 128000 387000 (1993) 33500 (2002) 76500 36000 37700 42100 43100 57200 87200 96100 141000 211000
2020-08-03 14:30 17.19 129000 387000 (1993) 33500 (2002) 76500 36000 37700 42100 43100 57200 87200 96100 141000 211000
2020-08-03 13:30 17.27 130000 387000 (1993) 33500 (2002) 76500 36000 37700 42100 43100 57200 87200 96100 141000 211000
2020-08-03 12:30 17.37 131000 387000 (1993) 33500 (2002) 76500 36000 37700 42100 43100 57200 87200 96100 141000 211000
2020-08-03 11:30 17.42 131000 387000 (1993) 33500 (2002) 76500 36000 37700 42100 43100 57200 87200 96100 141000 211000
2020-08-03 10:30 17.53 133000 387000 (1993) 33500 (2002) 76500 36000 37700 42100 43100 57200 87200 96100 141000 211000
2020-08-03 09:30 17.62 134000 387000 (1993) 33500 (2002) 76500 36000 37700 42100 43100 57200 87200 96100 141000 211000
2020-08-03 08:30 17.74 135000 387000 (1993) 33500 (2002) 76500 36000 37700 42100 43100 57200 87200 96100 141000 211000
2020-08-03 07:30 17.89 137000 387000 (1993) 33500 (2002) 76500 36000 37700 42100 43100 57200 87200 96100 141000 211000
2020-08-03 06:30 17.98 138000 387000 (1993) 33500 (2002) 76500 36000 37700 42100 43100 57200 87200 96100 141000 211000
2020-08-03 05:30 18.15 141000 387000 (1993) 33500 (2002) 76500 36000 37700 42100 43100 57200 87200 96100 141000 211000
2020-08-03 04:30 18.23 142000 387000 (1993) 33500 (2002) 76500 36000 37700 42100 43100 57200 87200 96100 141000 211000
2020-08-03 03:30 18.35 143000 387000 (1993) 33500 (2002) 76500 36000 37700 42100 43100 57200 87200 96100 141000 211000
2020-08-03 02:30 18.52 145000 387000 (1993) 33500 (2002) 76500 36000 37700 42100 43100 57200 87200 96100 141000 211000
2020-08-03 01:30 18.63 147000 387000 (1993) 33500 (2002) 76500 36000 37700 42100 43100 57200 87200 96100 141000 211000
2020-08-03 00:30 18.76 148000 387000 (1993) 33500 (2002) 76500 36000 37700 42100 43100 57200 87200 96100 141000 211000
2020-08-02 23:30 18.89 150000 479000 (1993) 34400 (2006) 80400 36000 38300 41800 43600 59500 84700 91400 158000 215000
2020-08-02 22:30 19.02 152000 479000 (1993) 34400 (2006) 80400 36000 38300 41800 43600 59500 84700 91400 158000 215000
2020-08-02 21:30 19.06 152000 479000 (1993) 34400 (2006) 80400 36000 38300 41800 43600 59500 84700 91400 158000 215000
2020-08-02 20:30 19.33 156000 479000 (1993) 34400 (2006) 80400 36000 38300 41800 43600 59500 84700 91400 158000 215000
2020-08-02 19:30 19.50 158000 479000 (1993) 34400 (2006) 80400 36000 38300 41800 43600 59500 84700 91400 158000 215000
2020-08-02 18:30 19.66 161000 479000 (1993) 34400 (2006) 80400 36000 38300 41800 43600 59500 84700 91400 158000 215000
2020-08-02 17:30 19.83 163000 479000 (1993) 34400 (2006) 80400 36000 38300 41800 43600 59500 84700 91400 158000 215000
2020-08-02 16:30 19.99 165000 479000 (1993) 34400 (2006) 80400 36000 38300 41800 43600 59500 84700 91400 158000 215000
2020-08-02 15:30 20.19 168000 479000 (1993) 34400 (2006) 80400 36000 38300 41800 43600 59500 84700 91400 158000 215000
2020-08-02 14:30 20.38 171000 479000 (1993) 34400 (2006) 80400 36000 38300 41800 43600 59500 84700 91400 158000 215000
2020-08-02 13:30 20.60 174000 479000 (1993) 34400 (2006) 80400 36000 38300 41800 43600 59500 84700 91400 158000 215000
2020-08-02 12:30 20.73 176000 479000 (1993) 34400 (2006) 80400 36000 38300 41800 43600 59500 84700 91400 158000 215000
2020-08-02 11:30 20.88 178000 479000 (1993) 34400 (2006) 80400 36000 38300 41800 43600 59500 84700 91400 158000 215000
2020-08-02 10:30 21.03 180000 479000 (1993) 34400 (2006) 80400 36000 38300 41800 43600 59500 84700 91400 158000 215000
2020-08-02 09:30 21.19 183000 479000 (1993) 34400 (2006) 80400 36000 38300 41800 43600 59500 84700 91400 158000 215000
2020-08-02 08:30 21.35 185000 479000 (1993) 34400 (2006) 80400 36000 38300 41800 43600 59500 84700 91400 158000 215000
2020-08-02 07:30 21.43 186000 479000 (1993) 34400 (2006) 80400 36000 38300 41800 43600 59500 84700 91400 158000 215000
2020-08-02 06:30 21.58 189000 479000 (1993) 34400 (2006) 80400 36000 38300 41800 43600 59500 84700 91400 158000 215000
2020-08-02 05:30 21.79 192000 479000 (1993) 34400 (2006) 80400 36000 38300 41800 43600 59500 84700 91400 158000 215000
2020-08-02 04:30 21.97 195000 479000 (1993) 34400 (2006) 80400 36000 38300 41800 43600 59500 84700 91400 158000 215000
2020-08-02 03:30 22.07 196000 479000 (1993) 34400 (2006) 80400 36000 38300 41800 43600 59500 84700 91400 158000 215000
2020-08-02 02:30 22.14 198000 479000 (1993) 34400 (2006) 80400 36000 38300 41800 43600 59500 84700 91400 158000 215000
2020-08-02 01:30 22.36 201000 479000 (1993) 34400 (2006) 80400 36000 38300 41800 43600 59500 84700 91400 158000 215000
2020-08-02 00:30 22.46 203000 479000 (1993) 34400 (2006) 80400 36000 38300 41800 43600 59500 84700 91400 158000 215000
2020-08-01 23:30 22.55 204000 603000 (1993) 33700 (2006) 84300 36500 37500 42800 43600 60800 81300 92400 163000 219000
2020-08-01 22:30 22.63 206000 603000 (1993) 33700 (2006) 84300 36500 37500 42800 43600 60800 81300 92400 163000 219000
2020-08-01 21:30 22.62 205000 603000 (1993) 33700 (2006) 84300 36500 37500 42800 43600 60800 81300 92400 163000 219000
2020-08-01 20:30 22.64 206000 603000 (1993) 33700 (2006) 84300 36500 37500 42800 43600 60800 81300 92400 163000 219000
2020-08-01 19:30 22.60 205000 603000 (1993) 33700 (2006) 84300 36500 37500 42800 43600 60800 81300 92400 163000 219000
2020-08-01 18:30 22.62 205000 603000 (1993) 33700 (2006) 84300 36500 37500 42800 43600 60800 81300 92400 163000 219000
2020-08-01 17:30 22.65 206000 603000 (1993) 33700 (2006) 84300 36500 37500 42800 43600 60800 81300 92400 163000 219000
2020-08-01 16:30 22.66 206000 603000 (1993) 33700 (2006) 84300 36500 37500 42800 43600 60800 81300 92400 163000 219000
2020-08-01 15:30 22.64 206000 603000 (1993) 33700 (2006) 84300 36500 37500 42800 43600 60800 81300 92400 163000 219000
2020-08-01 14:30 22.66 206000 603000 (1993) 33700 (2006) 84300 36500 37500 42800 43600 60800 81300 92400 163000 219000
2020-08-01 13:30 22.53 204000 603000 (1993) 33700 (2006) 84300 36500 37500 42800 43600 60800 81300 92400 163000 219000
2020-08-01 12:30 22.45 203000 603000 (1993) 33700 (2006) 84300 36500 37500 42800 43600 60800 81300 92400 163000 219000
2020-08-01 11:30 22.37 201000 603000 (1993) 33700 (2006) 84300 36500 37500 42800 43600 60800 81300 92400 163000 219000
2020-08-01 10:30 22.36 201000 603000 (1993) 33700 (2006) 84300 36500 37500 42800 43600 60800 81300 92400 163000 219000
2020-08-01 09:30 22.21 199000 603000 (1993) 33700 (2006) 84300 36500 37500 42800 43600 60800 81300 92400 163000 219000
2020-08-01 08:30 22.08 197000 603000 (1993) 33700 (2006) 84300 36500 37500 42800 43600 60800 81300 92400 163000 219000
2020-08-01 07:30 21.88 193000 603000 (1993) 33700 (2006) 84300 36500 37500 42800 43600 60800 81300 92400 163000 219000
2020-08-01 06:30 21.66 190000 603000 (1993) 33700 (2006) 84300 36500 37500 42800 43600 60800 81300 92400 163000 219000
2020-08-01 05:30 21.41 186000 603000 (1993) 33700 (2006) 84300 36500 37500 42800 43600 60800 81300 92400 163000 219000
2020-08-01 04:30 21.18 183000 603000 (1993) 33700 (2006) 84300 36500 37500 42800 43600 60800 81300 92400 163000 219000
2020-08-01 03:30 20.86 178000 603000 (1993) 33700 (2006) 84300 36500 37500 42800 43600 60800 81300 92400 163000 219000
2020-08-01 02:30 20.58 174000 603000 (1993) 33700 (2006) 84300 36500 37500 42800 43600 60800 81300 92400 163000 219000
2020-08-01 01:30 20.27 169000 603000 (1993) 33700 (2006) 84300 36500 37500 42800 43600 60800 81300 92400 163000 219000
2020-08-01 00:30 19.95 165000 603000 (1993) 33700 (2006) 84300 36500 37500 42800 43600 60800 81300 92400 163000 219000
2020-07-31 23:30 19.59 160000 662000 (1993) 34100 (2006) 85400 36400 37800 42400 44100 60900 86300 99100 160000 216000
2020-07-31 22:30 19.24 155000 662000 (1993) 34100 (2006) 85400 36400 37800 42400 44100 60900 86300 99100 160000 216000
2020-07-31 21:30 18.89 150000 662000 (1993) 34100 (2006) 85400 36400 37800 42400 44100 60900 86300 99100 160000 216000
2020-07-31 20:30 18.53 145000 662000 (1993) 34100 (2006) 85400 36400 37800 42400 44100 60900 86300 99100 160000 216000
2020-07-31 19:30 18.23 142000 662000 (1993) 34100 (2006) 85400 36400 37800 42400 44100 60900 86300 99100 160000 216000
2020-07-31 18:30 17.95 138000 662000 (1993) 34100 (2006) 85400 36400 37800 42400 44100 60900 86300 99100 160000 216000
2020-07-31 17:30 17.58 133000 662000 (1993) 34100 (2006) 85400 36400 37800 42400 44100 60900 86300 99100 160000 216000
2020-07-31 16:30 17.26 130000 662000 (1993) 34100 (2006) 85400 36400 37800 42400 44100 60900 86300 99100 160000 216000
2020-07-31 15:30 16.96 126000 662000 (1993) 34100 (2006) 85400 36400 37800 42400 44100 60900 86300 99100 160000 216000
2020-07-31 14:30 16.77 124000 662000 (1993) 34100 (2006) 85400 36400 37800 42400 44100 60900 86300 99100 160000 216000
2020-07-31 13:30 16.50 121000 662000 (1993) 34100 (2006) 85400 36400 37800 42400 44100 60900 86300 99100 160000 216000
2020-07-31 12:30 16.30 119000 662000 (1993) 34100 (2006) 85400 36400 37800 42400 44100 60900 86300 99100 160000 216000
2020-07-31 11:30 16.09 116000 662000 (1993) 34100 (2006) 85400 36400 37800 42400 44100 60900 86300 99100 160000 216000
2020-07-31 10:30 15.90 114000 662000 (1993) 34100 (2006) 85400 36400 37800 42400 44100 60900 86300 99100 160000 216000
2020-07-31 09:30 15.70 112000 662000 (1993) 34100 (2006) 85400 36400 37800 42400 44100 60900 86300 99100 160000 216000
2020-07-31 08:30 15.51 110000 662000 (1993) 34100 (2006) 85400 36400 37800 42400 44100 60900 86300 99100 160000 216000
2020-07-31 07:30 15.46 109000 662000 (1993) 34100 (2006) 85400 36400 37800 42400 44100 60900 86300 99100 160000 216000
2020-07-31 06:30 15.23 107000 662000 (1993) 34100 (2006) 85400 36400 37800 42400 44100 60900 86300 99100 160000 216000
2020-07-31 05:30 15.12 106000 662000 (1993) 34100 (2006) 85400 36400 37800 42400 44100 60900 86300 99100 160000 216000
2020-07-31 04:30 15.07 105000 662000 (1993) 34100 (2006) 85400 36400 37800 42400 44100 60900 86300 99100 160000 216000
2020-07-31 03:30 14.90 104000 662000 (1993) 34100 (2006) 85400 36400 37800 42400 44100 60900 86300 99100 160000 216000
2020-07-31 02:30 14.82 103000 662000 (1993) 34100 (2006) 85400 36400 37800 42400 44100 60900 86300 99100 160000 216000
2020-07-31 01:30 14.67 101000 662000 (1993) 34100 (2006) 85400 36400 37800 42400 44100 60900 86300 99100 160000 216000
2020-07-31 00:30 14.58 101000 662000 (1993) 34100 (2006) 85400 36400 37800 42400 44100 60900 86300 99100 160000 216000
2020-07-30 23:30 14.52 100000 721000 (1993) 34800 (2002) 85700 36600 38200 42100 43700 63200 85500 97900 154000 213000
2020-07-30 22:30 14.45 99300 721000 (1993) 34800 (2002) 85700 36600 38200 42100 43700 63200 85500 97900 154000 213000
2020-07-30 21:30 14.37 98600 721000 (1993) 34800 (2002) 85700 36600 38200 42100 43700 63200 85500 97900 154000 213000
2020-07-30 20:30 14.21 97000 721000 (1993) 34800 (2002) 85700 36600 38200 42100 43700 63200 85500 97900 154000 213000
2020-07-30 19:30 14.17 96600 721000 (1993) 34800 (2002) 85700 36600 38200 42100 43700 63200 85500 97900 154000 213000
2020-07-30 18:30 14.20 96900 721000 (1993) 34800 (2002) 85700 36600 38200 42100 43700 63200 85500 97900 154000 213000
2020-07-30 17:30 14.11 96100 721000 (1993) 34800 (2002) 85700 36600 38200 42100 43700 63200 85500 97900 154000 213000
2020-07-30 16:30 14.07 95700 721000 (1993) 34800 (2002) 85700 36600 38200 42100 43700 63200 85500 97900 154000 213000
2020-07-30 15:30 14.10 96000 721000 (1993) 34800 (2002) 85700 36600 38200 42100 43700 63200 85500 97900 154000 213000
2020-07-30 14:30 14.09 95900 721000 (1993) 34800 (2002) 85700 36600 38200 42100 43700 63200 85500 97900 154000 213000
2020-07-30 13:30 14.04 95400 721000 (1993) 34800 (2002) 85700 36600 38200 42100 43700 63200 85500 97900 154000 213000
2020-07-30 12:30 14.06 95600 721000 (1993) 34800 (2002) 85700 36600 38200 42100 43700 63200 85500 97900 154000 213000
2020-07-30 11:30 14.07 95700 721000 (1993) 34800 (2002) 85700 36600 38200 42100 43700 63200 85500 97900 154000 213000
2020-07-30 10:30 14.03 95300 721000 (1993) 34800 (2002) 85700 36600 38200 42100 43700 63200 85500 97900 154000 213000
2020-07-30 09:30 14.04 95400 721000 (1993) 34800 (2002) 85700 36600 38200 42100 43700 63200 85500 97900 154000 213000
2020-07-30 08:30 14.00 95000 721000 (1993) 34800 (2002) 85700 36600 38200 42100 43700 63200 85500 97900 154000 213000
2020-07-30 07:30 13.98 94900 721000 (1993) 34800 (2002) 85700 36600 38200 42100 43700 63200 85500 97900 154000 213000
2020-07-30 06:30 13.95 94600 721000 (1993) 34800 (2002) 85700 36600 38200 42100 43700 63200 85500 97900 154000 213000
2020-07-30 05:30 13.89 94000 721000 (1993) 34800 (2002) 85700 36600 38200 42100 43700 63200 85500 97900 154000 213000
2020-07-30 04:30 13.84 93500 721000 (1993) 34800 (2002) 85700 36600 38200 42100 43700 63200 85500 97900 154000 213000
2020-07-30 03:30 13.77 92900 721000 (1993) 34800 (2002) 85700 36600 38200 42100 43700 63200 85500 97900 154000 213000
2020-07-30 02:30 13.68 92100 721000 (1993) 34800 (2002) 85700 36600 38200 42100 43700 63200 85500 97900 154000 213000
2020-07-30 01:30 13.69 92200 721000 (1993) 34800 (2002) 85700 36600 38200 42100 43700 63200 85500 97900 154000 213000
2020-07-30 00:30 13.67 92000 721000 (1993) 34800 (2002) 85700 36600 38200 42100 43700 63200 85500 97900 154000 213000
2020-07-29 23:30 13.63 91600 706000 (1993) 33200 (2002) 86900 36500 37400 42000 43400 66600 86100 95700 170000 217000
2020-07-29 22:30 13.63 91600 706000 (1993) 33200 (2002) 86900 36500 37400 42000 43400 66600 86100 95700 170000 217000
2020-07-29 21:30 13.65 91800 706000 (1993) 33200 (2002) 86900 36500 37400 42000 43400 66600 86100 95700 170000 217000
2020-07-29 20:30 13.62 91500 706000 (1993) 33200 (2002) 86900 36500 37400 42000 43400 66600 86100 95700 170000 217000
2020-07-29 19:30 13.60 91300 706000 (1993) 33200 (2002) 86900 36500 37400 42000 43400 66600 86100 95700 170000 217000
2020-07-29 18:30 13.55 90900 706000 (1993) 33200 (2002) 86900 36500 37400 42000 43400 66600 86100 95700 170000 217000
2020-07-29 17:30 13.53 90700 706000 (1993) 33200 (2002) 86900 36500 37400 42000 43400 66600 86100 95700 170000 217000
2020-07-29 16:30 13.60 91300 706000 (1993) 33200 (2002) 86900 36500 37400 42000 43400 66600 86100 95700 170000 217000
2020-07-29 15:30 13.59 91300 706000 (1993) 33200 (2002) 86900 36500 37400 42000 43400 66600 86100 95700 170000 217000
2020-07-29 14:30 13.47 90200 706000 (1993) 33200 (2002) 86900 36500 37400 42000 43400 66600 86100 95700 170000 217000
2020-07-29 13:30 13.48 90300 706000 (1993) 33200 (2002) 86900 36500 37400 42000 43400 66600 86100 95700 170000 217000
2020-07-29 12:30 13.59 91300 706000 (1993) 33200 (2002) 86900 36500 37400 42000 43400 66600 86100 95700 170000 217000
2020-07-29 11:30 13.60 91300 706000 (1993) 33200 (2002) 86900 36500 37400 42000 43400 66600 86100 95700 170000 217000
2020-07-29 10:30 13.62 91500 706000 (1993) 33200 (2002) 86900 36500 37400 42000 43400 66600 86100 95700 170000 217000
2020-07-29 09:30 13.62 91500 706000 (1993) 33200 (2002) 86900 36500 37400 42000 43400 66600 86100 95700 170000 217000
2020-07-29 08:30 13.65 91800 706000 (1993) 33200 (2002) 86900 36500 37400 42000 43400 66600 86100 95700 170000 217000
2020-07-29 07:30 13.67 92000 706000 (1993) 33200 (2002) 86900 36500 37400 42000 43400 66600 86100 95700 170000 217000
2020-07-29 06:30 13.68 92100 706000 (1993) 33200 (2002) 86900 36500 37400 42000 43400 66600 86100 95700 170000 217000
2020-07-29 05:30 13.71 92400 706000 (1993) 33200 (2002) 86900 36500 37400 42000 43400 66600 86100 95700 170000 217000
2020-07-29 04:30 13.75 92700 706000 (1993) 33200 (2002) 86900 36500 37400 42000 43400 66600 86100 95700 170000 217000
2020-07-29 03:30 13.77 92900 706000 (1993) 33200 (2002) 86900 36500 37400 42000 43400 66600 86100 95700 170000 217000
2020-07-29 02:30 13.78 93000 706000 (1993) 33200 (2002) 86900 36500 37400 42000 43400 66600 86100 95700 170000 217000
2020-07-29 01:30 13.79 93100 706000 (1993) 33200 (2002) 86900 36500 37400 42000 43400 66600 86100 95700 170000 217000
2020-07-29 00:30 13.79 93100 706000 (1993) 33200 (2002) 86900 36500 37400 42000 43400 66600 86100 95700 170000 217000
2020-07-28 23:30 13.76 92800 606000 (1993) 32900 (2002) 85400 36000 37700 42400 43200 68200 90100 94600 170000 206000
2020-07-28 22:30 13.76 92800 606000 (1993) 32900 (2002) 85400 36000 37700 42400 43200 68200 90100 94600 170000 206000
2020-07-28 21:30 13.74 92600 606000 (1993) 32900 (2002) 85400 36000 37700 42400 43200 68200 90100 94600 170000 206000
2020-07-28 20:30 13.62 91500 606000 (1993) 32900 (2002) 85400 36000 37700 42400 43200 68200 90100 94600 170000 206000
2020-07-28 19:30 13.63 91600 606000 (1993) 32900 (2002) 85400 36000 37700 42400 43200 68200 90100 94600 170000 206000
2020-07-28 18:30 13.51 90500 606000 (1993) 32900 (2002) 85400 36000 37700 42400 43200 68200 90100 94600 170000 206000
2020-07-28 17:30 13.41 89600 606000 (1993) 32900 (2002) 85400 36000 37700 42400 43200 68200 90100 94600 170000 206000
2020-07-28 16:30 13.42 89700 606000 (1993) 32900 (2002) 85400 36000 37700 42400 43200 68200 90100 94600 170000 206000
2020-07-28 15:30 13.28 88500 606000 (1993) 32900 (2002) 85400 36000 37700 42400 43200 68200 90100 94600 170000 206000
2020-07-28 14:30 13.22 87900 606000 (1993) 32900 (2002) 85400 36000 37700 42400 43200 68200 90100 94600 170000 206000
2020-07-28 13:30 13.09 86800 606000 (1993) 32900 (2002) 85400 36000 37700 42400 43200 68200 90100 94600 170000 206000
2020-07-28 12:30 12.91 85200 606000 (1993) 32900 (2002) 85400 36000 37700 42400 43200 68200 90100 94600 170000 206000
2020-07-28 11:30 12.78 84100 606000 (1993) 32900 (2002) 85400 36000 37700 42400 43200 68200 90100 94600 170000 206000
2020-07-28 10:30 12.64 82900 606000 (1993) 32900 (2002) 85400 36000 37700 42400 43200 68200 90100 94600 170000 206000
2020-07-28 09:30 12.54 82100 606000 (1993) 32900 (2002) 85400 36000 37700 42400 43200 68200 90100 94600 170000 206000
2020-07-28 08:30 12.40 80900 606000 (1993) 32900 (2002) 85400 36000 37700 42400 43200 68200 90100 94600 170000 206000
2020-07-28 07:30 12.35 80500 606000 (1993) 32900 (2002) 85400 36000 37700 42400 43200 68200 90100 94600 170000 206000
2020-07-28 06:30 12.26 79800 606000 (1993) 32900 (2002) 85400 36000 37700 42400 43200 68200 90100 94600 170000 206000
2020-07-28 05:30 12.17 79100 606000 (1993) 32900 (2002) 85400 36000 37700 42400 43200 68200 90100 94600 170000 206000
2020-07-28 04:30 12.08 78300 606000 (1993) 32900 (2002) 85400 36000 37700 42400 43200 68200 90100 94600 170000 206000
2020-07-28 03:30 11.98 77500 606000 (1993) 32900 (2002) 85400 36000 37700 42400 43200 68200 90100 94600 170000 206000
2020-07-28 02:30 11.93 77100 606000 (1993) 32900 (2002) 85400 36000 37700 42400 43200 68200 90100 94600 170000 206000
2020-07-28 01:30 11.86 76600 606000 (1993) 32900 (2002) 85400 36000 37700 42400 43200 68200 90100 94600 170000 206000
2020-07-28 00:30 11.87 76600 606000 (1993) 32900 (2002) 85400 36000 37700 42400 43200 68200 90100 94600 170000 206000
2020-07-27 23:30 11.81 76200 487000 (1993) 33200 (2002) 83100 36300 37900 42600 43600 65800 95100 101000 153000 181000
2020-07-27 22:30 11.79 76000 487000 (1993) 33200 (2002) 83100 36300 37900 42600 43600 65800 95100 101000 153000 181000
2020-07-27 21:30 11.74 75600 487000 (1993) 33200 (2002) 83100 36300 37900 42600 43600 65800 95100 101000 153000 181000
2020-07-27 20:30 11.72 75500 487000 (1993) 33200 (2002) 83100 36300 37900 42600 43600 65800 95100 101000 153000 181000
2020-07-27 19:30 11.70 75300 487000 (1993) 33200 (2002) 83100 36300 37900 42600 43600 65800 95100 101000 153000 181000
2020-07-27 18:30 11.68 75200 487000 (1993) 33200 (2002) 83100 36300 37900 42600 43600 65800 95100 101000 153000 181000
2020-07-27 17:30 11.65 74900 487000 (1993) 33200 (2002) 83100 36300 37900 42600 43600 65800 95100 101000 153000 181000
2020-07-27 16:30 11.62 74700 487000 (1993) 33200 (2002) 83100 36300 37900 42600 43600 65800 95100 101000 153000 181000
2020-07-27 15:30 11.60 74500 487000 (1993) 33200 (2002) 83100 36300 37900 42600 43600 65800 95100 101000 153000 181000
2020-07-27 14:30 11.62 74700 487000 (1993) 33200 (2002) 83100 36300 37900 42600 43600 65800 95100 101000 153000 181000
2020-07-27 13:30 11.60 74500 487000 (1993) 33200 (2002) 83100 36300 37900 42600 43600 65800 95100 101000 153000 181000
2020-07-27 12:30 11.61 74600 487000 (1993) 33200 (2002) 83100 36300 37900 42600 43600 65800 95100 101000 153000 181000
2020-07-27 11:30 11.61 74600 487000 (1993) 33200 (2002) 83100 36300 37900 42600 43600 65800 95100 101000 153000 181000
2020-07-27 10:30 11.58 74400 487000 (1993) 33200 (2002) 83100 36300 37900 42600 43600 65800 95100 101000 153000 181000
2020-07-27 09:30 11.60 74500 487000 (1993) 33200 (2002) 83100 36300 37900 42600 43600 65800 95100 101000 153000 181000
2020-07-27 08:30 11.60 74500 487000 (1993) 33200 (2002) 83100 36300 37900 42600 43600 65800 95100 101000 153000 181000
2020-07-27 07:30 11.61 74600 487000 (1993) 33200 (2002) 83100 36300 37900 42600 43600 65800 95100 101000 153000 181000
2020-07-27 06:30 11.51 73800 487000 (1993) 33200 (2002) 83100 36300 37900 42600 43600 65800 95100 101000 153000 181000
2020-07-27 05:30 11.60 74500 487000 (1993) 33200 (2002) 83100 36300 37900 42600 43600 65800 95100 101000 153000 181000
2020-07-27 04:30 11.62 74700 487000 (1993) 33200 (2002) 83100 36300 37900 42600 43600 65800 95100 101000 153000 181000
2020-07-27 03:30 11.62 74700 487000 (1993) 33200 (2002) 83100 36300 37900 42600 43600 65800 95100 101000 153000 181000
2020-07-27 02:30 11.63 74800 487000 (1993) 33200 (2002) 83100 36300 37900 42600 43600 65800 95100 101000 153000 181000
2020-07-27 01:30 11.65 74900 487000 (1993) 33200 (2002) 83100 36300 37900 42600 43600 65800 95100 101000 153000 181000
2020-07-27 00:30 11.65 74900 487000 (1993) 33200 (2002) 83100 36300 37900 42600 43600 65800 95100 101000 153000 181000
2020-07-26 23:30 11.66 75000 393000 (1993) 33100 (2002) 81500 36300 38800 43300 44000 66800 100000 111000 133000 182000
2020-07-26 22:30 11.66 75000 393000 (1993) 33100 (2002) 81500 36300 38800 43300 44000 66800 100000 111000 133000 182000
2020-07-26 21:30 11.67 75100 393000 (1993) 33100 (2002) 81500 36300 38800 43300 44000 66800 100000 111000 133000 182000
2020-07-26 20:30 11.67 75100 393000 (1993) 33100 (2002) 81500 36300 38800 43300 44000 66800 100000 111000 133000 182000
2020-07-26 19:30 11.69 75200 393000 (1993) 33100 (2002) 81500 36300 38800 43300 44000 66800 100000 111000 133000 182000
2020-07-26 18:30 11.71 75400 393000 (1993) 33100 (2002) 81500 36300 38800 43300 44000 66800 100000 111000 133000 182000
2020-07-26 17:30 11.73 75500 393000 (1993) 33100 (2002) 81500 36300 38800 43300 44000 66800 100000 111000 133000 182000
2020-07-26 16:30 11.74 75600 393000 (1993) 33100 (2002) 81500 36300 38800 43300 44000 66800 100000 111000 133000 182000
2020-07-26 15:30 11.75 75700 393000 (1993) 33100 (2002) 81500 36300 38800 43300 44000 66800 100000 111000 133000 182000
2020-07-26 14:30 11.77 75900 393000 (1993) 33100 (2002) 81500 36300 38800 43300 44000 66800 100000 111000 133000 182000
2020-07-26 13:30 11.71 75400 393000 (1993) 33100 (2002) 81500 36300 38800 43300 44000 66800 100000 111000 133000 182000
2020-07-26 12:30 11.80 76100 393000 (1993) 33100 (2002) 81500 36300 38800 43300 44000 66800 100000 111000 133000 182000
2020-07-26 11:30 11.81 76200 393000 (1993) 33100 (2002) 81500 36300 38800 43300 44000 66800 100000 111000 133000 182000
2020-07-26 10:30 11.82 76300 393000 (1993) 33100 (2002) 81500 36300 38800 43300 44000 66800 100000 111000 133000 182000
2020-07-26 09:30 11.81 76200 393000 (1993) 33100 (2002) 81500 36300 38800 43300 44000 66800 100000 111000 133000 182000
2020-07-26 08:30 11.84 76400 393000 (1993) 33100 (2002) 81500 36300 38800 43300 44000 66800 100000 111000 133000 182000
2020-07-26 07:30 11.88 76700 393000 (1993) 33100 (2002) 81500 36300 38800 43300 44000 66800 100000 111000 133000 182000
2020-07-26 06:30 11.89 76800 393000 (1993) 33100 (2002) 81500 36300 38800 43300 44000 66800 100000 111000 133000 182000
2020-07-26 05:30 11.92 77000 393000 (1993) 33100 (2002) 81500 36300 38800 43300 44000 66800 100000 111000 133000 182000
2020-07-26 04:30 11.95 77300 393000 (1993) 33100 (2002) 81500 36300 38800 43300 44000 66800 100000 111000 133000 182000
2020-07-26 03:30 11.98 77500 393000 (1993) 33100 (2002) 81500 36300 38800 43300 44000 66800 100000 111000 133000 182000
2020-07-26 02:30 12.02 77800 393000 (1993) 33100 (2002) 81500 36300 38800 43300 44000 66800 100000 111000 133000 182000
2020-07-26 01:30 12.03 77900 393000 (1993) 33100 (2002) 81500 36300 38800 43300 44000 66800 100000 111000 133000 182000
2020-07-26 00:30 12.05 78100 393000 (1993) 33100 (2002) 81500 36300 38800 43300 44000 66800 100000 111000 133000 182000
2020-07-25 23:30 12.08 78300 340000 (1993) 33700 (2002) 80500 37000 38700 43000 44100 63800 99000 103000 154000 186000
2020-07-25 22:30 12.08 78300 340000 (1993) 33700 (2002) 80500 37000 38700 43000 44100 63800 99000 103000 154000 186000
2020-07-25 21:30 12.10 78500 340000 (1993) 33700 (2002) 80500 37000 38700 43000 44100 63800 99000 103000 154000 186000
2020-07-25 20:30 12.14 78800 340000 (1993) 33700 (2002) 80500 37000 38700 43000 44100 63800 99000 103000 154000 186000
2020-07-25 19:30 12.12 78700 340000 (1993) 33700 (2002) 80500 37000 38700 43000 44100 63800 99000 103000 154000 186000
2020-07-25 18:30 12.17 79100 340000 (1993) 33700 (2002) 80500 37000 38700 43000 44100 63800 99000 103000 154000 186000
2020-07-25 17:30 12.22 79500 340000 (1993) 33700 (2002) 80500 37000 38700 43000 44100 63800 99000 103000 154000 186000
2020-07-25 16:30 12.30 80100 340000 (1993) 33700 (2002) 80500 37000 38700 43000 44100 63800 99000 103000 154000 186000
2020-07-25 15:30 12.30 80100 340000 (1993) 33700 (2002) 80500 37000 38700 43000 44100 63800 99000 103000 154000 186000
2020-07-25 14:30 12.40 80900 340000 (1993) 33700 (2002) 80500 37000 38700 43000 44100 63800 99000 103000 154000 186000
2020-07-25 13:30 12.42 81100 340000 (1993) 33700 (2002) 80500 37000 38700 43000 44100 63800 99000 103000 154000 186000
2020-07-25 12:30 12.46 81400 340000 (1993) 33700 (2002) 80500 37000 38700 43000 44100 63800 99000 103000 154000 186000
2020-07-25 11:30 12.52 81900 340000 (1993) 33700 (2002) 80500 37000 38700 43000 44100 63800 99000 103000 154000 186000
2020-07-25 10:30 12.57 82400 340000 (1993) 33700 (2002) 80500 37000 38700 43000 44100 63800 99000 103000 154000 186000
2020-07-25 09:30 12.62 82800 340000 (1993) 33700 (2002) 80500 37000 38700 43000 44100 63800 99000 103000 154000 186000
2020-07-25 08:30 12.63 82900 340000 (1993) 33700 (2002) 80500 37000 38700 43000 44100 63800 99000 103000 154000 186000
2020-07-25 07:30 12.73 83700 340000 (1993) 33700 (2002) 80500 37000 38700 43000 44100 63800 99000 103000 154000 186000
2020-07-25 06:30 12.76 84000 340000 (1993) 33700 (2002) 80500 37000 38700 43000 44100 63800 99000 103000 154000 186000
2020-07-25 05:30 12.81 84400 340000 (1993) 33700 (2002) 80500 37000 38700 43000 44100 63800 99000 103000 154000 186000
2020-07-25 04:30 12.88 85000 340000 (1993) 33700 (2002) 80500 37000 38700 43000 44100 63800 99000 103000 154000 186000
2020-07-25 03:30 12.94 85500 340000 (1993) 33700 (2002) 80500 37000 38700 43000 44100 63800 99000 103000 154000 186000
2020-07-25 02:30 12.98 85900 340000 (1993) 33700 (2002) 80500 37000 38700 43000 44100 63800 99000 103000 154000 186000
2020-07-25 01:30 13.06 86500 340000 (1993) 33700 (2002) 80500 37000 38700 43000 44100 63800 99000 103000 154000 186000
2020-07-25 00:30 13.10 86900 340000 (1993) 33700 (2002) 80500 37000 38700 43000 44100 63800 99000 103000 154000 186000
2020-07-24 23:30 13.17 87500 321000 (1993) 34500 (2002) 83100 37300 38700 42800 44300 65400 95100 106000 184000 215000
2020-07-24 22:30 13.17 87500 321000 (1993) 34500 (2002) 83100 37300 38700 42800 44300 65400 95100 106000 184000 215000
2020-07-24 21:30 13.22 87900 321000 (1993) 34500 (2002) 83100 37300 38700 42800 44300 65400 95100 106000 184000 215000
2020-07-24 20:30 13.37 89300 321000 (1993) 34500 (2002) 83100 37300 38700 42800 44300 65400 95100 106000 184000 215000
2020-07-24 19:30 13.32 88800 321000 (1993) 34500 (2002) 83100 37300 38700 42800 44300 65400 95100 106000 184000 215000
2020-07-24 18:30 13.54 90800 321000 (1993) 34500 (2002) 83100 37300 38700 42800 44300 65400 95100 106000 184000 215000
2020-07-24 17:30 13.58 91200 321000 (1993) 34500 (2002) 83100 37300 38700 42800 44300 65400 95100 106000 184000 215000
2020-07-24 16:30 13.64 91700 321000 (1993) 34500 (2002) 83100 37300 38700 42800 44300 65400 95100 106000 184000 215000
2020-07-24 15:30 13.70 92300 321000 (1993) 34500 (2002) 83100 37300 38700 42800 44300 65400 95100 106000 184000 215000
2020-07-24 14:30 13.76 92800 321000 (1993) 34500 (2002) 83100 37300 38700 42800 44300 65400 95100 106000 184000 215000
2020-07-24 13:30 13.90 94100 321000 (1993) 34500 (2002) 83100 37300 38700 42800 44300 65400 95100 106000 184000 215000
2020-07-24 12:30 13.97 94800 321000 (1993) 34500 (2002) 83100 37300 38700 42800 44300 65400 95100 106000 184000 215000
2020-07-24 11:30 14.04 92600 321000 (1993) 34500 (2002) 83100 37300 38700 42800 44300 65400 95100 106000 184000 215000
2020-07-24 10:30 14.13 93500 321000 (1993) 34500 (2002) 83100 37300 38700 42800 44300 65400 95100 106000 184000 215000
2020-07-24 09:30 14.20 94100 321000 (1993) 34500 (2002) 83100 37300 38700 42800 44300 65400 95100 106000 184000 215000
2020-07-24 08:30 14.31 95100 321000 (1993) 34500 (2002) 83100 37300 38700 42800 44300 65400 95100 106000 184000 215000
2020-07-24 07:30 14.38 95800 321000 (1993) 34500 (2002) 83100 37300 38700 42800 44300 65400 95100 106000 184000 215000
2020-07-24 06:30 14.47 96600 321000 (1993) 34500 (2002) 83100 37300 38700 42800 44300 65400 95100 106000 184000 215000
2020-07-24 05:30 14.52 97100 321000 (1993) 34500 (2002) 83100 37300 38700 42800 44300 65400 95100 106000 184000 215000
2020-07-24 04:30 14.65 98400 321000 (1993) 34500 (2002) 83100 37300 38700 42800 44300 65400 95100 106000 184000 215000
2020-07-24 03:30 14.66 98500 321000 (1993) 34500 (2002) 83100 37300 38700 42800 44300 65400 95100 106000 184000 215000
2020-07-24 02:30 14.76 99400 321000 (1993) 34500 (2002) 83100 37300 38700 42800 44300 65400 95100 106000 184000 215000
2020-07-24 01:30 14.82 100000 321000 (1993) 34500 (2002) 83100 37300 38700 42800 44300 65400 95100 106000 184000 215000
2020-07-24 00:30 14.95 101000 321000 (1993) 34500 (2002) 83100 37300 38700 42800 44300 65400 95100 106000 184000 215000
2020-07-23 23:30 15.05 102000 314000 (1993) 35100 (2002) 87000 37900 39600 42900 44800 68700 95400 105000 190000 232000
2020-07-23 22:30 15.12 103000 314000 (1993) 35100 (2002) 87000 37900 39600 42900 44800 68700 95400 105000 190000 232000
2020-07-23 21:30 15.14 103000 314000 (1993) 35100 (2002) 87000 37900 39600 42900 44800 68700 95400 105000 190000 232000
2020-07-23 20:30 15.29 105000 314000 (1993) 35100 (2002) 87000 37900 39600 42900 44800 68700 95400 105000 190000 232000
2020-07-23 19:30 15.39 106000 314000 (1993) 35100 (2002) 87000 37900 39600 42900 44800 68700 95400 105000 190000 232000
2020-07-23 18:30 15.42 106000 314000 (1993) 35100 (2002) 87000 37900 39600 42900 44800 68700 95400 105000 190000 232000
2020-07-23 17:30 15.61 108000 314000 (1993) 35100 (2002) 87000 37900 39600 42900 44800 68700 95400 105000 190000 232000
2020-07-23 16:30 15.66 108000 314000 (1993) 35100 (2002) 87000 37900 39600 42900 44800 68700 95400 105000 190000 232000
2020-07-23 15:30 15.81 110000 314000 (1993) 35100 (2002) 87000 37900 39600 42900 44800 68700 95400 105000 190000 232000
2020-07-23 14:30 15.87 111000 314000 (1993) 35100 (2002) 87000 37900 39600 42900 44800 68700 95400 105000 190000 232000
2020-07-23 13:30 15.89 111000 314000 (1993) 35100 (2002) 87000 37900 39600 42900 44800 68700 95400 105000 190000 232000
2020-07-23 12:30 15.93 111000 314000 (1993) 35100 (2002) 87000 37900 39600 42900 44800 68700 95400 105000 190000 232000
2020-07-23 11:30 16.04 112000 314000 (1993) 35100 (2002) 87000 37900 39600 42900 44800 68700 95400 105000 190000 232000
2020-07-23 10:30 16.09 113000 314000 (1993) 35100 (2002) 87000 37900 39600 42900 44800 68700 95400 105000 190000 232000
2020-07-23 09:30 16.14 114000 314000 (1993) 35100 (2002) 87000 37900 39600 42900 44800 68700 95400 105000 190000 232000
2020-07-23 08:30 16.21 114000 314000 (1993) 35100 (2002) 87000 37900 39600 42900 44800 68700 95400 105000 190000 232000
2020-07-23 07:30 16.34 116000 314000 (1993) 35100 (2002) 87000 37900 39600 42900 44800 68700 95400 105000 190000 232000
2020-07-23 06:30 16.35 116000 314000 (1993) 35100 (2002) 87000 37900 39600 42900 44800 68700 95400 105000 190000 232000
2020-07-23 05:30 16.40 116000 314000 (1993) 35100 (2002) 87000 37900 39600 42900 44800 68700 95400 105000 190000 232000
2020-07-23 04:30 16.41 116000 314000 (1993) 35100 (2002) 87000 37900 39600 42900 44800 68700 95400 105000 190000 232000
2020-07-23 03:30 16.47 117000 314000 (1993) 35100 (2002) 87000 37900 39600 42900 44800 68700 95400 105000 190000 232000
2020-07-23 02:30 16.43 117000 314000 (1993) 35100 (2002) 87000 37900 39600 42900 44800 68700 95400 105000 190000 232000
2020-07-23 01:30 16.43 117000 314000 (1993) 35100 (2002) 87000 37900 39600 42900 44800 68700 95400 105000 190000 232000
2020-07-23 00:30 16.44 117000 314000 (1993) 35100 (2002) 87000 37900 39600 42900 44800 68700 95400 105000 190000 232000
2020-07-22 23:30 16.41 116000 305000 (1993) 35600 (2002) 87400 38500 40900 43700 44100 66600 99800 109000 198000 237000
2020-07-22 22:30 16.35 116000 305000 (1993) 35600 (2002) 87400 38500 40900 43700 44100 66600 99800 109000 198000 237000
2020-07-22 21:30 16.27 115000 305000 (1993) 35600 (2002) 87400 38500 40900 43700 44100 66600 99800 109000 198000 237000
2020-07-22 20:30 16.18 114000 305000 (1993) 35600 (2002) 87400 38500 40900 43700 44100 66600 99800 109000 198000 237000
2020-07-22 19:30 16.05 113000 305000 (1993) 35600 (2002) 87400 38500 40900 43700 44100 66600 99800 109000 198000 237000
2020-07-22 18:30 15.95 111000 305000 (1993) 35600 (2002) 87400 38500 40900 43700 44100 66600 99800 109000 198000 237000
2020-07-22 17:30 15.83 110000 305000 (1993) 35600 (2002) 87400 38500 40900 43700 44100 66600 99800 109000 198000 237000
2020-07-22 16:30 15.67 109000 305000 (1993) 35600 (2002) 87400 38500 40900 43700 44100 66600 99800 109000 198000 237000
2020-07-22 15:30 15.53 107000 305000 (1993) 35600 (2002) 87400 38500 40900 43700 44100 66600 99800 109000 198000 237000
2020-07-22 14:30 15.37 105000 305000 (1993) 35600 (2002) 87400 38500 40900 43700 44100 66600 99800 109000 198000 237000
2020-07-22 13:30 15.19 104000 305000 (1993) 35600 (2002) 87400 38500 40900 43700 44100 66600 99800 109000 198000 237000
2020-07-22 12:30 15.02 102000 305000 (1993) 35600 (2002) 87400 38500 40900 43700 44100 66600 99800 109000 198000 237000
2020-07-22 11:30 14.83 100000 305000 (1993) 35600 (2002) 87400 38500 40900 43700 44100 66600 99800 109000 198000 237000
2020-07-22 10:30 14.63 98200 305000 (1993) 35600 (2002) 87400 38500 40900 43700 44100 66600 99800 109000 198000 237000
2020-07-22 09:30 14.45 96500 305000 (1993) 35600 (2002) 87400 38500 40900 43700 44100 66600 99800 109000 198000 237000
2020-07-22 08:30 14.26 94700 305000 (1993) 35600 (2002) 87400 38500 40900 43700 44100 66600 99800 109000 198000 237000
2020-07-22 07:30 14.09 93100 305000 (1993) 35600 (2002) 87400 38500 40900 43700 44100 66600 99800 109000 198000 237000
2020-07-22 06:30 13.93 91600 305000 (1993) 35600 (2002) 87400 38500 40900 43700 44100 66600 99800 109000 198000 237000
2020-07-22 05:30 13.75 90000 305000 (1993) 35600 (2002) 87400 38500 40900 43700 44100 66600 99800 109000 198000 237000
2020-07-22 04:30 13.60 88700 305000 (1993) 35600 (2002) 87400 38500 40900 43700 44100 66600 99800 109000 198000 237000
2020-07-22 03:30 13.44 87200 305000 (1993) 35600 (2002) 87400 38500 40900 43700 44100 66600 99800 109000 198000 237000
2020-07-22 02:30 13.31 86100 305000 (1993) 35600 (2002) 87400 38500 40900 43700 44100 66600 99800 109000 198000 237000
2020-07-22 01:30 13.19 85100 305000 (1993) 35600 (2002) 87400 38500 40900 43700 44100 66600 99800 109000 198000 237000
2020-07-22 00:30 13.10 84300 305000 (1993) 35600 (2002) 87400 38500 40900 43700 44100 66600 99800 109000 198000 237000
2020-07-21 23:30 12.99 83400 304000 (1993) 35900 (2002) 83100 37800 39600 43400 45000 67700 97100 104000 172000 217000
2020-07-21 22:30 12.91 82700 304000 (1993) 35900 (2002) 83100 37800 39600 43400 45000 67700 97100 104000 172000 217000
2020-07-21 21:30 12.86 82300 304000 (1993) 35900 (2002) 83100 37800 39600 43400 45000 67700 97100 104000 172000 217000
2020-07-21 20:30 12.77 81500 304000 (1993) 35900 (2002) 83100 37800 39600 43400 45000 67700 97100 104000 172000 217000
2020-07-21 19:30 12.65 80500 304000 (1993) 35900 (2002) 83100 37800 39600 43400 45000 67700 97100 104000 172000 217000
2020-07-21 18:30 12.59 80000 304000 (1993) 35900 (2002) 83100 37800 39600 43400 45000 67700 97100 104000 172000 217000
2020-07-21 17:30 12.57 79900 304000 (1993) 35900 (2002) 83100 37800 39600 43400 45000 67700 97100 104000 172000 217000
2020-07-21 16:30 12.41 78600 304000 (1993) 35900 (2002) 83100 37800 39600 43400 45000 67700 97100 104000 172000 217000
2020-07-21 15:30 12.28 77500 304000 (1993) 35900 (2002) 83100 37800 39600 43400 45000 67700 97100 104000 172000 217000
2020-07-21 14:30 12.36 78200 304000 (1993) 35900 (2002) 83100 37800 39600 43400 45000 67700 97100 104000 172000 217000
2020-07-21 13:30 12.31 77800 304000 (1993) 35900 (2002) 83100 37800 39600 43400 45000 67700 97100 104000 172000 217000
2020-07-21 12:30 12.26 77400 304000 (1993) 35900 (2002) 83100 37800 39600 43400 45000 67700 97100 104000 172000 217000
2020-07-21 11:30 12.20 76900 304000 (1993) 35900 (2002) 83100 37800 39600 43400 45000 67700 97100 104000 172000 217000
2020-07-21 10:30 12.15 76500 304000 (1993) 35900 (2002) 83100 37800 39600 43400 45000 67700 97100 104000 172000 217000
2020-07-21 09:30 12.06 75800 304000 (1993) 35900 (2002) 83100 37800 39600 43400 45000 67700 97100 104000 172000 217000
2020-07-21 08:30 12.01 75400 304000 (1993) 35900 (2002) 83100 37800 39600 43400 45000 67700 97100 104000 172000 217000
2020-07-21 07:30 11.99 75200 304000 (1993) 35900 (2002) 83100 37800 39600 43400 45000 67700 97100 104000 172000 217000
2020-07-21 06:30 11.95 74900 304000 (1993) 35900 (2002) 83100 37800 39600 43400 45000 67700 97100 104000 172000 217000
2020-07-21 05:30 11.91 74600 304000 (1993) 35900 (2002) 83100 37800 39600 43400 45000 67700 97100 104000 172000 217000
2020-07-21 04:30 11.91 74600 304000 (1993) 35900 (2002) 83100 37800 39600 43400 45000 67700 97100 104000 172000 217000
2020-07-21 03:30 11.89 74500 304000 (1993) 35900 (2002) 83100 37800 39600 43400 45000 67700 97100 104000 172000 217000
2020-07-21 02:30 11.82 73900 304000 (1993) 35900 (2002) 83100 37800 39600 43400 45000 67700 97100 104000 172000 217000
2020-07-21 01:30 11.91 74600 304000 (1993) 35900 (2002) 83100 37800 39600 43400 45000 67700 97100 104000 172000 217000
2020-07-21 00:30 11.90 74500 304000 (1993) 35900 (2002) 83100 37800 39600 43400 45000 67700 97100 104000 172000 217000
2020-07-20 23:30 11.95 74900 315000 (1993) 36100 (2002) 79800 37500 41100 42700 44100 63100 90800 100000 147000 216000
2020-07-20 22:30 11.95 74900 315000 (1993) 36100 (2002) 79800 37500 41100 42700 44100 63100 90800 100000 147000 216000
2020-07-20 21:30 11.98 75200 315000 (1993) 36100 (2002) 79800 37500 41100 42700 44100 63100 90800 100000 147000 216000
2020-07-20 20:30 11.91 74600 315000 (1993) 36100 (2002) 79800 37500 41100 42700 44100 63100 90800 100000 147000 216000
2020-07-20 19:30 11.93 74800 315000 (1993) 36100 (2002) 79800 37500 41100 42700 44100 63100 90800 100000 147000 216000
2020-07-20 18:30 11.90 74500 315000 (1993) 36100 (2002) 79800 37500 41100 42700 44100 63100 90800 100000 147000 216000
2020-07-20 17:30 11.98 75200 315000 (1993) 36100 (2002) 79800 37500 41100 42700 44100 63100 90800 100000 147000 216000
2020-07-20 16:30 11.95 74900 315000 (1993) 36100 (2002) 79800 37500 41100 42700 44100 63100 90800 100000 147000 216000
2020-07-20 15:30 11.88 74400 315000 (1993) 36100 (2002) 79800 37500 41100 42700 44100 63100 90800 100000 147000 216000
2020-07-20 14:30 11.81 73800 315000 (1993) 36100 (2002) 79800 37500 41100 42700 44100 63100 90800 100000 147000 216000
2020-07-20 13:30 11.74 73300 315000 (1993) 36100 (2002) 79800 37500 41100 42700 44100 63100 90800 100000 147000 216000
2020-07-20 12:30 11.68 72800 315000 (1993) 36100 (2002) 79800 37500 41100 42700 44100 63100 90800 100000 147000 216000
2020-07-20 11:30 11.80 73800 315000 (1993) 36100 (2002) 79800 37500 41100 42700 44100 63100 90800 100000 147000 216000
2020-07-20 10:30 11.76 73400 315000 (1993) 36100 (2002) 79800 37500 41100 42700 44100 63100 90800 100000 147000 216000
2020-07-20 09:30 11.79 73700 315000 (1993) 36100 (2002) 79800 37500 41100 42700 44100 63100 90800 100000 147000 216000
2020-07-20 08:30 11.83 74000 315000 (1993) 36100 (2002) 79800 37500 41100 42700 44100 63100 90800 100000 147000 216000
2020-07-20 07:30 11.84 74100 315000 (1993) 36100 (2002) 79800 37500 41100 42700 44100 63100 90800 100000 147000 216000
2020-07-20 06:30 11.88 74400 315000 (1993) 36100 (2002) 79800 37500 41100 42700 44100 63100 90800 100000 147000 216000
2020-07-20 05:30 11.89 74500 315000 (1993) 36100 (2002) 79800 37500 41100 42700 44100 63100 90800 100000 147000 216000
2020-07-20 04:30 11.98 75200 315000 (1993) 36100 (2002) 79800 37500 41100 42700 44100 63100 90800 100000 147000 216000
2020-07-20 03:30 12.06 75800 315000 (1993) 36100 (2002) 79800 37500 41100 42700 44100 63100 90800 100000 147000 216000
2020-07-20 02:30 12.12 76300 315000 (1993) 36100 (2002) 79800 37500 41100 42700 44100 63100 90800 100000 147000 216000
2020-07-20 01:30 12.18 76700 315000 (1993) 36100 (2002) 79800 37500 41100 42700 44100 63100 90800 100000 147000 216000
2020-07-20 00:30 12.25 77300 315000 (1993) 36100 (2002) 79800 37500 41100 42700 44100 63100 90800 100000 147000 216000
2020-07-19 23:30 12.30 77700 328000 (1993) 36600 (2002) 79400 38300 40900 43600 45500 64800 91100 95400 149000 195000
2020-07-19 22:30 12.29 77600 328000 (1993) 36600 (2002) 79400 38300 40900 43600 45500 64800 91100 95400 149000 195000
2020-07-19 21:30 12.37 78200 328000 (1993) 36600 (2002) 79400 38300 40900 43600 45500 64800 91100 95400 149000 195000
2020-07-19 20:30 12.47 79100 328000 (1993) 36600 (2002) 79400 38300 40900 43600 45500 64800 91100 95400 149000 195000
2020-07-19 19:30 12.49 79200 328000 (1993) 36600 (2002) 79400 38300 40900 43600 45500 64800 91100 95400 149000 195000
2020-07-19 18:30 12.60 80100 328000 (1993) 36600 (2002) 79400 38300 40900 43600 45500 64800 91100 95400 149000 195000
2020-07-19 17:30 12.63 80400 328000 (1993) 36600 (2002) 79400 38300 40900 43600 45500 64800 91100 95400 149000 195000
2020-07-19 16:30 12.66 80600 328000 (1993) 36600 (2002) 79400 38300 40900 43600 45500 64800 91100 95400 149000 195000
2020-07-19 15:30 12.83 82000 328000 (1993) 36600 (2002) 79400 38300 40900 43600 45500 64800 91100 95400 149000 195000
2020-07-19 14:30 12.89 82500 328000 (1993) 36600 (2002) 79400 38300 40900 43600 45500 64800 91100 95400 149000 195000
2020-07-19 13:30 13.00 83500 328000 (1993) 36600 (2002) 79400 38300 40900 43600 45500 64800 91100 95400 149000 195000
2020-07-19 12:30 13.06 84000 328000 (1993) 36600 (2002) 79400 38300 40900 43600 45500 64800 91100 95400 149000 195000
2020-07-19 11:30 13.16 84800 328000 (1993) 36600 (2002) 79400 38300 40900 43600 45500 64800 91100 95400 149000 195000
2020-07-19 10:30 13.23 85400 328000 (1993) 36600 (2002) 79400 38300 40900 43600 45500 64800 91100 95400 149000 195000
2020-07-19 09:30 13.26 85700 328000 (1993) 36600 (2002) 79400 38300 40900 43600 45500 64800 91100 95400 149000 195000
2020-07-19 08:30 13.40 86900 328000 (1993) 36600 (2002) 79400 38300 40900 43600 45500 64800 91100 95400 149000 195000
2020-07-19 07:30 13.45 87300 328000 (1993) 36600 (2002) 79400 38300 40900 43600 45500 64800 91100 95400 149000 195000
2020-07-19 06:30 13.61 88700 328000 (1993) 36600 (2002) 79400 38300 40900 43600 45500 64800 91100 95400 149000 195000
2020-07-19 05:30 13.67 89300 328000 (1993) 36600 (2002) 79400 38300 40900 43600 45500 64800 91100 95400 149000 195000
2020-07-19 04:30 13.83 90700 328000 (1993) 36600 (2002) 79400 38300 40900 43600 45500 64800 91100 95400 149000 195000
2020-07-19 03:30 14.00 92300 328000 (1993) 36600 (2002) 79400 38300 40900 43600 45500 64800 91100 95400 149000 195000
2020-07-19 02:30 14.11 93300 328000 (1993) 36600 (2002) 79400 38300 40900 43600 45500 64800 91100 95400 149000 195000
2020-07-19 01:30 14.21 94200 328000 (1993) 36600 (2002) 79400 38300 40900 43600 45500 64800 91100 95400 149000 195000
2020-07-19 00:30 14.30 95000 328000 (1993) 36600 (2002) 79400 38300 40900 43600 45500 64800 91100 95400 149000 195000
2020-07-18 23:30 14.42 96200 353000 (1993) 37600 (2006) 80900 39100 43300 44900 45800 66100 92700 101000 149000 179000
2020-07-18 22:30 14.52 97100 353000 (1993) 37600 (2006) 80900 39100 43300 44900 45800 66100 92700 101000 149000 179000
2020-07-18 21:30 14.65 98400 353000 (1993) 37600 (2006) 80900 39100 43300 44900 45800 66100 92700 101000 149000 179000
2020-07-18 20:30 14.74 99200 353000 (1993) 37600 (2006) 80900 39100 43300 44900 45800 66100 92700 101000 149000 179000
2020-07-18 19:30 14.79 99700 353000 (1993) 37600 (2006) 80900 39100 43300 44900 45800 66100 92700 101000 149000 179000
2020-07-18 18:30 14.88 101000 353000 (1993) 37600 (2006) 80900 39100 43300 44900 45800 66100 92700 101000 149000 179000
2020-07-18 17:30 14.94 101000 353000 (1993) 37600 (2006) 80900 39100 43300 44900 45800 66100 92700 101000 149000 179000
2020-07-18 16:30 15.12 103000 353000 (1993) 37600 (2006) 80900 39100 43300 44900 45800 66100 92700 101000 149000 179000
2020-07-18 15:30 15.08 103000 353000 (1993) 37600 (2006) 80900 39100 43300 44900 45800 66100 92700 101000 149000 179000
2020-07-18 14:30 15.22 104000 353000 (1993) 37600 (2006) 80900 39100 43300 44900 45800 66100 92700 101000 149000 179000
2020-07-18 13:30 15.31 105000 353000 (1993) 37600 (2006) 80900 39100 43300 44900 45800 66100 92700 101000 149000 179000
2020-07-18 12:30 15.41 106000 353000 (1993) 37600 (2006) 80900 39100 43300 44900 45800 66100 92700 101000 149000 179000
2020-07-18 11:30 15.48 107000 353000 (1993) 37600 (2006) 80900 39100 43300 44900 45800 66100 92700 101000 149000 179000
2020-07-18 10:30 15.50 107000 353000 (1993) 37600 (2006) 80900 39100 43300 44900 45800 66100 92700 101000 149000 179000
2020-07-18 09:30 15.65 108000 353000 (1993) 37600 (2006) 80900 39100 43300 44900 45800 66100 92700 101000 149000 179000
2020-07-18 08:30 15.73 109000 353000 (1993) 37600 (2006) 80900 39100 43300 44900 45800 66100 92700 101000 149000 179000
2020-07-18 07:30 15.74 109000 353000 (1993) 37600 (2006) 80900 39100 43300 44900 45800 66100 92700 101000 149000 179000
2020-07-18 06:30 15.85 110000 353000 (1993) 37600 (2006) 80900 39100 43300 44900 45800 66100 92700 101000 149000 179000
2020-07-18 05:30 15.86 111000 353000 (1993) 37600 (2006) 80900 39100 43300 44900 45800 66100 92700 101000 149000 179000
2020-07-18 04:30 15.85 110000 353000 (1993) 37600 (2006) 80900 39100 43300 44900 45800 66100 92700 101000 149000 179000
2020-07-18 03:30 15.98 112000 353000 (1993) 37600 (2006) 80900 39100 43300 44900 45800 66100 92700 101000 149000 179000
2020-07-18 02:30 16.00 112000 353000 (1993) 37600 (2006) 80900 39100 43300 44900 45800 66100 92700 101000 149000 179000
2020-07-18 01:30 16.03 112000 353000 (1993) 37600 (2006) 80900 39100 43300 44900 45800 66100 92700 101000 149000 179000
2020-07-18 00:30 16.06 113000 353000 (1993) 37600 (2006) 80900 39100 43300 44900 45800 66100 92700 101000 149000 179000
2020-07-17 23:30 16.07 113000 383000 (1993) 38200 (2006) 82500 39300 42100 45100 47700 66800 94700 103000 146000 169000
2020-07-17 22:30 16.08 113000 383000 (1993) 38200 (2006) 82500 39300 42100 45100 47700 66800 94700 103000 146000 169000
2020-07-17 21:30 16.07 113000 383000 (1993) 38200 (2006) 82500 39300 42100 45100 47700 66800 94700 103000 146000 169000
2020-07-17 20:30 16.12 113000 383000 (1993) 38200 (2006) 82500 39300 42100 45100 47700 66800 94700 103000 146000 169000
2020-07-17 19:30 16.07 113000 383000 (1993) 38200 (2006) 82500 39300 42100 45100 47700 66800 94700 103000 146000 169000
2020-07-17 18:30 16.06 113000 383000 (1993) 38200 (2006) 82500 39300 42100 45100 47700 66800 94700 103000 146000 169000
2020-07-17 17:30 16.02 112000 383000 (1993) 38200 (2006) 82500 39300 42100 45100 47700 66800 94700 103000 146000 169000
2020-07-17 16:30 16.06 113000 383000 (1993) 38200 (2006) 82500 39300 42100 45100 47700 66800 94700 103000 146000 169000
2020-07-17 15:30 16.04 112000 383000 (1993) 38200 (2006) 82500 39300 42100 45100 47700 66800 94700 103000 146000 169000
2020-07-17 14:30 15.91 111000 383000 (1993) 38200 (2006) 82500 39300 42100 45100 47700 66800 94700 103000 146000 169000
2020-07-17 13:30 15.88 111000 383000 (1993) 38200 (2006) 82500 39300 42100 45100 47700 66800 94700 103000 146000 169000
2020-07-17 12:30 15.85 110000 383000 (1993) 38200 (2006) 82500 39300 42100 45100 47700 66800 94700 103000 146000 169000
2020-07-17 11:30 15.85 110000 383000 (1993) 38200 (2006) 82500 39300 42100 45100 47700 66800 94700 103000 146000 169000
2020-07-17 10:30 15.80 110000 383000 (1993) 38200 (2006) 82500 39300 42100 45100 47700 66800 94700 103000 146000 169000
2020-07-17 09:30 15.74 109000 383000 (1993) 38200 (2006) 82500 39300 42100 45100 47700 66800 94700 103000 146000 169000
2020-07-17 08:30 15.60 108000 383000 (1993) 38200 (2006) 82500 39300 42100 45100 47700 66800 94700 103000 146000 169000
2020-07-17 07:30 15.49 107000 383000 (1993) 38200 (2006) 82500 39300 42100 45100 47700 66800 94700 103000 146000 169000
2020-07-17 06:30 15.49 107000 383000 (1993) 38200 (2006) 82500 39300 42100 45100 47700 66800 94700 103000 146000 169000
2020-07-17 05:30 15.38 106000 383000 (1993) 38200 (2006) 82500 39300 42100 45100 47700 66800 94700 103000 146000 169000
2020-07-17 04:30 15.25 104000 383000 (1993) 38200 (2006) 82500 39300 42100 45100 47700 66800 94700 103000 146000 169000
2020-07-17 03:30 15.14 103000 383000 (1993) 38200 (2006) 82500 39300 42100 45100 47700 66800 94700 103000 146000 169000
2020-07-17 02:30 15.06 102000 383000 (1993) 38200 (2006) 82500 39300 42100 45100 47700 66800 94700 103000 146000 169000
2020-07-17 01:30 14.96 101000 383000 (1993) 38200 (2006) 82500 39300 42100 45100 47700 66800 94700 103000 146000 169000
2020-07-17 00:30 14.84 100000 383000 (1993) 38200 (2006) 82500 39300 42100 45100 47700 66800 94700 103000 146000 169000
2020-07-16 23:30 14.73 99100 405000 (1993) 37800 (1989) 84900 38900 40900 45000 47100 68300 99900 108000 148000 177000
2020-07-16 22:30 14.56 97500 405000 (1993) 37800 (1989) 84900 38900 40900 45000 47100 68300 99900 108000 148000 177000
2020-07-16 21:30 14.52 97100 405000 (1993) 37800 (1989) 84900 38900 40900 45000 47100 68300 99900 108000 148000 177000
2020-07-16 20:30 14.39 95900 405000 (1993) 37800 (1989) 84900 38900 40900 45000 47100 68300 99900 108000 148000 177000
2020-07-16 19:30 14.24 94500 405000 (1993) 37800 (1989) 84900 38900 40900 45000 47100 68300 99900 108000 148000 177000
2020-07-16 18:30 14.11 93300 405000 (1993) 37800 (1989) 84900 38900 40900 45000 47100 68300 99900 108000 148000 177000
2020-07-16 17:30 13.96 91900 405000 (1993) 37800 (1989) 84900 38900 40900 45000 47100 68300 99900 108000 148000 177000
2020-07-16 16:30 13.73 89800 405000 (1993) 37800 (1989) 84900 38900 40900 45000 47100 68300 99900 108000 148000 177000
2020-07-16 15:30 13.61 88700 405000 (1993) 37800 (1989) 84900 38900 40900 45000 47100 68300 99900 108000 148000 177000
2020-07-16 14:30 13.50 87800 405000 (1993) 37800 (1989) 84900 38900 40900 45000 47100 68300 99900 108000 148000 177000
2020-07-16 13:30 13.39 86800 405000 (1993) 37800 (1989) 84900 38900 40900 45000 47100 68300 99900 108000 148000 177000
2020-07-16 12:30 13.20 85200 405000 (1993) 37800 (1989) 84900 38900 40900 45000 47100 68300 99900 108000 148000 177000
2020-07-16 11:30 13.04 83800 405000 (1993) 37800 (1989) 84900 38900 40900 45000 47100 68300 99900 108000 148000 177000
2020-07-16 09:30 12.80 81800 405000 (1993) 37800 (1989) 84900 38900 40900 45000 47100 68300 99900 108000 148000 177000
2020-07-16 08:30 12.69 80900 405000 (1993) 37800 (1989) 84900 38900 40900 45000 47100 68300 99900 108000 148000 177000
2020-07-16 07:30 12.57 79900 405000 (1993) 37800 (1989) 84900 38900 40900 45000 47100 68300 99900 108000 148000 177000
2020-07-16 06:30 12.47 79100 405000 (1993) 37800 (1989) 84900 38900 40900 45000 47100 68300 99900 108000 148000 177000
2020-07-16 05:30 12.39 78400 405000 (1993) 37800 (1989) 84900 38900 40900 45000 47100 68300 99900 108000 148000 177000
2020-07-16 04:30 12.30 77700 405000 (1993) 37800 (1989) 84900 38900 40900 45000 47100 68300 99900 108000 148000 177000
2020-07-16 03:30 12.23 77100 405000 (1993) 37800 (1989) 84900 38900 40900 45000 47100 68300 99900 108000 148000 177000
2020-07-16 02:30 12.19 76800 405000 (1993) 37800 (1989) 84900 38900 40900 45000 47100 68300 99900 108000 148000 177000
2020-07-16 01:30 12.13 76300 405000 (1993) 37800 (1989) 84900 38900 40900 45000 47100 68300 99900 108000 148000 177000
2020-07-16 00:30 12.07 75900 405000 (1993) 37800 (1989) 84900 38900 40900 45000 47100 68300 99900 108000 148000 177000
2020-07-15 23:30 12.04 75600 439000 (1993) 37000 (1981) 88300 39000 40000 44600 47100 69600 102000 111000 153000 193000
2020-07-15 22:30 12.02 75500 439000 (1993) 37000 (1981) 88300 39000 40000 44600 47100 69600 102000 111000 153000 193000
2020-07-15 21:30 11.95 74900 439000 (1993) 37000 (1981) 88300 39000 40000 44600 47100 69600 102000 111000 153000 193000
2020-07-15 20:30 11.96 75000 439000 (1993) 37000 (1981) 88300 39000 40000 44600 47100 69600 102000 111000 153000 193000
2020-07-15 19:30 11.92 74700 439000 (1993) 37000 (1981) 88300 39000 40000 44600 47100 69600 102000 111000 153000 193000
2020-07-15 18:30 11.89 74500 439000 (1993) 37000 (1981) 88300 39000 40000 44600 47100 69600 102000 111000 153000 193000
2020-07-15 17:30 11.87 74300 439000 (1993) 37000 (1981) 88300 39000 40000 44600 47100 69600 102000 111000 153000 193000
2020-07-15 16:30 11.80 73800 439000 (1993) 37000 (1981) 88300 39000 40000 44600 47100 69600 102000 111000 153000 193000
2020-07-15 15:30 11.79 73700 439000 (1993) 37000 (1981) 88300 39000 40000 44600 47100 69600 102000 111000 153000 193000
2020-07-15 14:30 11.73 73200 439000 (1993) 37000 (1981) 88300 39000 40000 44600 47100 69600 102000 111000 153000 193000
2020-07-15 13:30 11.67 72800 439000 (1993) 37000 (1981) 88300 39000 40000 44600 47100 69600 102000 111000 153000 193000
2020-07-15 12:30 11.63 72500 439000 (1993) 37000 (1981) 88300 39000 40000 44600 47100 69600 102000 111000 153000 193000
2020-07-15 11:30 11.59 72200 439000 (1993) 37000 (1981) 88300 39000 40000 44600 47100 69600 102000 111000 153000 193000
2020-07-15 10:30 11.53 71700 439000 (1993) 37000 (1981) 88300 39000 40000 44600 47100 69600 102000 111000 153000 193000
2020-07-15 09:30 11.52 71600 439000 (1993) 37000 (1981) 88300 39000 40000 44600 47100 69600 102000 111000 153000 193000
2020-07-15 08:30 11.51 71600 439000 (1993) 37000 (1981) 88300 39000 40000 44600 47100 69600 102000 111000 153000 193000
2020-07-15 07:30 11.42 70900 439000 (1993) 37000 (1981) 88300 39000 40000 44600 47100 69600 102000 111000 153000 193000
2020-07-15 06:30 11.29 69900 439000 (1993) 37000 (1981) 88300 39000 40000 44600 47100 69600 102000 111000 153000 193000
2020-07-15 05:30 11.36 70400 439000 (1993) 37000 (1981) 88300 39000 40000 44600 47100 69600 102000 111000 153000 193000
2020-07-15 04:30 11.39 70700 439000 (1993) 37000 (1981) 88300 39000 40000 44600 47100 69600 102000 111000 153000 193000
2020-07-15 03:30 11.37 70500 439000 (1993) 37000 (1981) 88300 39000 40000 44600 47100 69600 102000 111000 153000 193000
2020-07-15 02:30 11.33 70200 439000 (1993) 37000 (1981) 88300 39000 40000 44600 47100 69600 102000 111000 153000 193000
2020-07-15 01:30 11.35 70400 439000 (1993) 37000 (1981) 88300 39000 40000 44600 47100 69600 102000 111000 153000 193000
2020-07-15 00:30 11.37 70500 439000 (1993) 37000 (1981) 88300 39000 40000 44600 47100 69600 102000 111000 153000 193000
2020-07-14 23:30 11.29 69900 458000 (1993) 38700 (1968) 89600 39000 41400 44200 47400 72600 105000 116000 169000 187000
2020-07-14 22:30 11.34 70300 458000 (1993) 38700 (1968) 89600 39000 41400 44200 47400 72600 105000 116000 169000 187000
2020-07-14 21:30 11.31 70100 458000 (1993) 38700 (1968) 89600 39000 41400 44200 47400 72600 105000 116000 169000 187000
2020-07-14 20:30 11.30 70000 458000 (1993) 38700 (1968) 89600 39000 41400 44200 47400 72600 105000 116000 169000 187000
2020-07-14 19:30 11.27 69800 458000 (1993) 38700 (1968) 89600 39000 41400 44200 47400 72600 105000 116000 169000 187000
2020-07-14 18:30 11.24 69500 458000 (1993) 38700 (1968) 89600 39000 41400 44200 47400 72600 105000 116000 169000 187000
2020-07-14 17:30 11.20 69200 458000 (1993) 38700 (1968) 89600 39000 41400 44200 47400 72600 105000 116000 169000 187000
2020-07-14 16:30 11.28 69800 458000 (1993) 38700 (1968) 89600 39000 41400 44200 47400 72600 105000 116000 169000 187000
2020-07-14 15:30 11.28 69800 458000 (1993) 38700 (1968) 89600 39000 41400 44200 47400 72600 105000 116000 169000 187000
2020-07-14 14:30 11.22 69400 458000 (1993) 38700 (1968) 89600 39000 41400 44200 47400 72600 105000 116000 169000 187000
2020-07-14 13:30 11.28 69800 458000 (1993) 38700 (1968) 89600 39000 41400 44200 47400 72600 105000 116000 169000 187000
2020-07-14 12:30 11.18 69100 458000 (1993) 38700 (1968) 89600 39000 41400 44200 47400 72600 105000 116000 169000 187000
2020-07-14 11:30 11.15 68900 458000 (1993) 38700 (1968) 89600 39000 41400 44200 47400 72600 105000 116000 169000 187000
2020-07-14 10:30 11.14 68800 458000 (1993) 38700 (1968) 89600 39000 41400 44200 47400 72600 105000 116000 169000 187000
2020-07-14 09:30 11.19 69200 458000 (1993) 38700 (1968) 89600 39000 41400 44200 47400 72600 105000 116000 169000 187000
2020-07-14 08:30 11.21 69300 458000 (1993) 38700 (1968) 89600 39000 41400 44200 47400 72600 105000 116000 169000 187000
2020-07-14 07:30 11.23 69500 458000 (1993) 38700 (1968) 89600 39000 41400 44200 47400 72600 105000 116000 169000 187000
2020-07-14 06:30 11.26 69700 458000 (1993) 38700 (1968) 89600 39000 41400 44200 47400 72600 105000 116000 169000 187000
2020-07-14 05:30 11.18 69100 458000 (1993) 38700 (1968) 89600 39000 41400 44200 47400 72600 105000 116000 169000 187000
2020-07-14 04:30 11.15 68900 458000 (1993) 38700 (1968) 89600 39000 41400 44200 47400 72600 105000 116000 169000 187000
2020-07-14 03:30 11.19 69200 458000 (1993) 38700 (1968) 89600 39000 41400 44200 47400 72600 105000 116000 169000 187000
2020-07-14 02:30 11.17 69000 458000 (1993) 38700 (1968) 89600 39000 41400 44200 47400 72600 105000 116000 169000 187000
2020-07-14 01:30 11.23 69500 458000 (1993) 38700 (1968) 89600 39000 41400 44200 47400 72600 105000 116000 169000 187000
2020-07-14 00:30 11.25 69600 458000 (1993) 38700 (1968) 89600 39000 41400 44200 47400 72600 105000 116000 169000 187000
2020-07-13 23:30 11.24 69500 400000 (1993) 36700 (2006) 89100 39800 41100 45300 47800 74900 103000 124000 173000 207000
2020-07-13 22:30 11.29 69900 400000 (1993) 36700 (2006) 89100 39800 41100 45300 47800 74900 103000 124000 173000 207000
2020-07-13 21:30 11.28 69800 400000 (1993) 36700 (2006) 89100 39800 41100 45300 47800 74900 103000 124000 173000 207000
2020-07-13 20:30 11.27 69800 400000 (1993) 36700 (2006) 89100 39800 41100 45300 47800 74900 103000 124000 173000 207000
2020-07-13 19:30 11.27 69800 400000 (1993) 36700 (2006) 89100 39800 41100 45300 47800 74900 103000 124000 173000 207000
2020-07-13 18:30 11.23 69500 400000 (1993) 36700 (2006) 89100 39800 41100 45300 47800 74900 103000 124000 173000 207000
2020-07-13 17:30 11.27 69800 400000 (1993) 36700 (2006) 89100 39800 41100 45300 47800 74900 103000 124000 173000 207000
2020-07-13 16:30 11.22 69400 400000 (1993) 36700 (2006) 89100 39800 41100 45300 47800 74900 103000 124000 173000 207000
2020-07-13 15:30 11.29 69900 400000 (1993) 36700 (2006) 89100 39800 41100 45300 47800 74900 103000 124000 173000 207000
2020-07-13 14:30 11.29 69900 400000 (1993) 36700 (2006) 89100 39800 41100 45300 47800 74900 103000 124000 173000 207000
2020-07-13 13:30 11.32 70100 400000 (1993) 36700 (2006) 89100 39800 41100 45300 47800 74900 103000 124000 173000 207000
2020-07-13 12:30 11.39 70700 400000 (1993) 36700 (2006) 89100 39800 41100 45300 47800 74900 103000 124000 173000 207000
2020-07-13 11:30 11.37 70500 400000 (1993) 36700 (2006) 89100 39800 41100 45300 47800 74900 103000 124000 173000 207000
2020-07-13 10:30 11.44 71000 400000 (1993) 36700 (2006) 89100 39800 41100 45300 47800 74900 103000 124000 173000 207000
2020-07-13 09:30 11.47 71300 400000 (1993) 36700 (2006) 89100 39800 41100 45300 47800 74900 103000 124000 173000 207000
2020-07-13 08:30 11.43 71000 400000 (1993) 36700 (2006) 89100 39800 41100 45300 47800 74900 103000 124000 173000 207000
2020-07-13 07:30 11.45 71100 400000 (1993) 36700 (2006) 89100 39800 41100 45300 47800 74900 103000 124000 173000 207000
2020-07-13 06:30 11.52 71600 400000 (1993) 36700 (2006) 89100 39800 41100 45300 47800 74900 103000 124000 173000 207000
2020-07-13 05:30 11.54 71800 400000 (1993) 36700 (2006) 89100 39800 41100 45300 47800 74900 103000 124000 173000 207000
2020-07-13 04:30 11.55 71900 400000 (1993) 36700 (2006) 89100 39800 41100 45300 47800 74900 103000 124000 173000 207000
2020-07-13 03:30 11.57 72000 400000 (1993) 36700 (2006) 89100 39800 41100 45300 47800 74900 103000 124000 173000 207000
2020-07-13 02:30 11.61 72300 400000 (1993) 36700 (2006) 89100 39800 41100 45300 47800 74900 103000 124000 173000 207000
2020-07-13 01:30 11.63 72500 400000 (1993) 36700 (2006) 89100 39800 41100 45300 47800 74900 103000 124000 173000 207000
2020-07-13 00:30 11.63 72500 400000 (1993) 36700 (2006) 89100 39800 41100 45300 47800 74900 103000 124000 173000 207000
2020-07-12 23:30 11.65 72600 375000 (1993) 36000 (2006) 88500 39500 40800 46500 48900 70900 106000 120000 159000 230000
2020-07-12 22:30 11.67 72800 375000 (1993) 36000 (2006) 88500 39500 40800 46500 48900 70900 106000 120000 159000 230000
2020-07-12 21:30 11.56 71900 375000 (1993) 36000 (2006) 88500 39500 40800 46500 48900 70900 106000 120000 159000 230000
2020-07-12 20:30 11.70 73000 375000 (1993) 36000 (2006) 88500 39500 40800 46500 48900 70900 106000 120000 159000 230000
2020-07-12 19:30 11.71 73100 375000 (1993) 36000 (2006) 88500 39500 40800 46500 48900 70900 106000 120000 159000 230000
2020-07-12 18:30 11.73 73200 375000 (1993) 36000 (2006) 88500 39500 40800 46500 48900 70900 106000 120000 159000 230000
2020-07-12 17:30 11.73 73200 375000 (1993) 36000 (2006) 88500 39500 40800 46500 48900 70900 106000 120000 159000 230000
2020-07-12 16:30 11.76 73400 375000 (1993) 36000 (2006) 88500 39500 40800 46500 48900 70900 106000 120000 159000 230000
2020-07-12 15:30 11.67 72800 375000 (1993) 36000 (2006) 88500 39500 40800 46500 48900 70900 106000 120000 159000 230000
2020-07-12 14:30 11.74 73300 375000 (1993) 36000 (2006) 88500 39500 40800 46500 48900 70900 106000 120000 159000 230000
2020-07-12 13:30 11.71 73100 375000 (1993) 36000 (2006) 88500 39500 40800 46500 48900 70900 106000 120000 159000 230000
2020-07-12 12:30 11.78 73600 375000 (1993) 36000 (2006) 88500 39500 40800 46500 48900 70900 106000 120000 159000 230000
2020-07-12 11:30 11.77 73500 375000 (1993) 36000 (2006) 88500 39500 40800 46500 48900 70900 106000 120000 159000 230000
2020-07-12 10:30 11.81 73800 375000 (1993) 36000 (2006) 88500 39500 40800 46500 48900 70900 106000 120000 159000 230000
2020-07-12 09:30 11.78 73600 375000 (1993) 36000 (2006) 88500 39500 40800 46500 48900 70900 106000 120000 159000 230000
2020-07-12 08:30 11.80 73800 375000 (1993) 36000 (2006) 88500 39500 40800 46500 48900 70900 106000 120000 159000 230000
2020-07-12 07:30 11.83 74000 375000 (1993) 36000 (2006) 88500 39500 40800 46500 48900 70900 106000 120000 159000 230000
2020-07-12 06:30 11.84 74100 375000 (1993) 36000 (2006) 88500 39500 40800 46500 48900 70900 106000 120000 159000 230000
2020-07-12 05:30 11.85 74100 375000 (1993) 36000 (2006) 88500 39500 40800 46500 48900 70900 106000 120000 159000 230000
2020-07-12 04:30 11.87 74300 375000 (1993) 36000 (2006) 88500 39500 40800 46500 48900 70900 106000 120000 159000 230000
2020-07-12 03:30 11.89 74500 375000 (1993) 36000 (2006) 88500 39500 40800 46500 48900 70900 106000 120000 159000 230000
2020-07-12 02:30 11.89 74500 375000 (1993) 36000 (2006) 88500 39500 40800 46500 48900 70900 106000 120000 159000 230000
2020-07-12 01:30 11.91 74600 375000 (1993) 36000 (2006) 88500 39500 40800 46500 48900 70900 106000 120000 159000 230000
2020-07-12 00:30 11.89 74500 375000 (1993) 36000 (2006) 88500 39500 40800 46500 48900 70900 106000 120000 159000 230000
2020-07-11 23:30 11.90 74500 318000 (1993) 35300 (2006) 87100 39400 42100 47900 49500 67200 104000 120000 163000 212000
2020-07-11 22:30 11.93 74800 318000 (1993) 35300 (2006) 87100 39400 42100 47900 49500 67200 104000 120000 163000 212000
2020-07-11 21:30 11.92 74700 318000 (1993) 35300 (2006) 87100 39400 42100 47900 49500 67200 104000 120000 163000 212000
2020-07-11 20:30 11.92 74700 318000 (1993) 35300 (2006) 87100 39400 42100 47900 49500 67200 104000 120000 163000 212000
2020-07-11 19:30 11.93 74800 318000 (1993) 35300 (2006) 87100 39400 42100 47900 49500 67200 104000 120000 163000 212000
2020-07-11 18:30 11.93 74800 318000 (1993) 35300 (2006) 87100 39400 42100 47900 49500 67200 104000 120000 163000 212000
2020-07-11 17:30 11.96 75000 318000 (1993) 35300 (2006) 87100 39400 42100 47900 49500 67200 104000 120000 163000 212000
2020-07-11 16:30 11.97 75100 318000 (1993) 35300 (2006) 87100 39400 42100 47900 49500 67200 104000 120000 163000 212000
2020-07-11 15:30 11.97 75100 318000 (1993) 35300 (2006) 87100 39400 42100 47900 49500 67200 104000 120000 163000 212000
2020-07-11 14:30 11.98 75200 318000 (1993) 35300 (2006) 87100 39400 42100 47900 49500 67200 104000 120000 163000 212000
2020-07-11 13:30 11.99 75200 318000 (1993) 35300 (2006) 87100 39400 42100 47900 49500 67200 104000 120000 163000 212000
2020-07-11 12:30 11.93 74800 318000 (1993) 35300 (2006) 87100 39400 42100 47900 49500 67200 104000 120000 163000 212000
2020-07-11 11:30 12.01 75400 318000 (1993) 35300 (2006) 87100 39400 42100 47900 49500 67200 104000 120000 163000 212000
2020-07-11 10:30 12.02 75500 318000 (1993) 35300 (2006) 87100 39400 42100 47900 49500 67200 104000 120000 163000 212000
2020-07-11 09:30 12.05 75700 318000 (1993) 35300 (2006) 87100 39400 42100 47900 49500 67200 104000 120000 163000 212000
2020-07-11 08:30 12.05 75700 318000 (1993) 35300 (2006) 87100 39400 42100 47900 49500 67200 104000 120000 163000 212000
2020-07-11 07:30 12.04 75600 318000 (1993) 35300 (2006) 87100 39400 42100 47900 49500 67200 104000 120000 163000 212000
2020-07-11 06:30 12.09 76000 318000 (1993) 35300 (2006) 87100 39400 42100 47900 49500 67200 104000 120000 163000 212000
2020-07-11 05:30 12.11 76200 318000 (1993) 35300 (2006) 87100 39400 42100 47900 49500 67200 104000 120000 163000 212000
2020-07-11 04:30 12.11 76200 318000 (1993) 35300 (2006) 87100 39400 42100 47900 49500 67200 104000 120000 163000 212000
2020-07-11 03:30 12.12 76300 318000 (1993) 35300 (2006) 87100 39400 42100 47900 49500 67200 104000 120000 163000 212000
2020-07-11 02:30 12.14 76400 318000 (1993) 35300 (2006) 87100 39400 42100 47900 49500 67200 104000 120000 163000 212000
2020-07-11 01:30 12.16 76600 318000 (1993) 35300 (2006) 87100 39400 42100 47900 49500 67200 104000 120000 163000 212000
2020-07-11 00:30 12.17 76600 318000 (1993) 35300 (2006) 87100 39400 42100 47900 49500 67200 104000 120000 163000 212000
2020-07-10 23:30 12.17 76600 301000 (1993) 35500 (2006) 88200 39400 41900 48600 50200 70400 109000 121000 174000 197000
2020-07-10 22:30 12.20 76900 301000 (1993) 35500 (2006) 88200 39400 41900 48600 50200 70400 109000 121000 174000 197000
2020-07-10 21:30 12.21 77000 301000 (1993) 35500 (2006) 88200 39400 41900 48600 50200 70400 109000 121000 174000 197000
2020-07-10 20:30 12.21 77000 301000 (1993) 35500 (2006) 88200 39400 41900 48600 50200 70400 109000 121000 174000 197000
2020-07-10 19:30 12.23 77100 301000 (1993) 35500 (2006) 88200 39400 41900 48600 50200 70400 109000 121000 174000 197000
2020-07-10 18:30 12.25 77300 301000 (1993) 35500 (2006) 88200 39400 41900 48600 50200 70400 109000 121000 174000 197000
2020-07-10 17:30 12.26 77400 301000 (1993) 35500 (2006) 88200 39400 41900 48600 50200 70400 109000 121000 174000 197000
2020-07-10 16:30 12.29 77600 301000 (1993) 35500 (2006) 88200 39400 41900 48600 50200 70400 109000 121000 174000 197000
2020-07-10 15:30 12.31 77800 301000 (1993) 35500 (2006) 88200 39400 41900 48600 50200 70400 109000 121000 174000 197000
2020-07-10 14:30 12.32 77800 301000 (1993) 35500 (2006) 88200 39400 41900 48600 50200 70400 109000 121000 174000 197000
2020-07-10 13:30 12.34 78000 301000 (1993) 35500 (2006) 88200 39400 41900 48600 50200 70400 109000 121000 174000 197000
2020-07-10 12:30 12.34 78000 301000 (1993) 35500 (2006) 88200 39400 41900 48600 50200 70400 109000 121000 174000 197000
2020-07-10 11:30 12.34 78000 301000 (1993) 35500 (2006) 88200 39400 41900 48600 50200 70400 109000 121000 174000 197000
2020-07-10 10:30 12.36 78200 301000 (1993) 35500 (2006) 88200 39400 41900 48600 50200 70400 109000 121000 174000 197000
2020-07-10 09:30 12.36 78200 301000 (1993) 35500 (2006) 88200 39400 41900 48600 50200 70400 109000 121000 174000 197000
2020-07-10 08:30 12.34 78000 301000 (1993) 35500 (2006) 88200 39400 41900 48600 50200 70400 109000 121000 174000 197000
2020-07-10 07:30 12.39 78400 301000 (1993) 35500 (2006) 88200 39400 41900 48600 50200 70400 109000 121000 174000 197000
2020-07-10 06:30 12.41 78600 301000 (1993) 35500 (2006) 88200 39400 41900 48600 50200 70400 109000 121000 174000 197000
2020-07-10 05:30 12.41 78600 301000 (1993) 35500 (2006) 88200 39400 41900 48600 50200 70400 109000 121000 174000 197000
2020-07-10 04:30 12.42 78700 301000 (1993) 35500 (2006) 88200 39400 41900 48600 50200 70400 109000 121000 174000 197000
2020-07-10 03:30 12.43 78700 301000 (1993) 35500 (2006) 88200 39400 41900 48600 50200 70400 109000 121000 174000 197000
2020-07-10 02:30 12.44 78800 301000 (1993) 35500 (2006) 88200 39400 41900 48600 50200 70400 109000 121000 174000 197000
2020-07-10 01:30 12.46 79000 301000 (1993) 35500 (2006) 88200 39400 41900 48600 50200 70400 109000 121000 174000 197000
2020-07-10 00:30 12.46 79000 301000 (1993) 35500 (2006) 88200 39400 41900 48600 50200 70400 109000 121000 174000 197000
2020-07-09 23:30 12.48 79100 312000 (1993) 36000 (2006) 91700 39000 43300 49100 51500 71300 109000 124000 191000 210000
2020-07-09 22:30 12.49 79200 312000 (1993) 36000 (2006) 91700 39000 43300 49100 51500 71300 109000 124000 191000 210000
2020-07-09 21:30 12.51 79400 312000 (1993) 36000 (2006) 91700 39000 43300 49100 51500 71300 109000 124000 191000 210000
2020-07-09 20:30 12.50 79300 312000 (1993) 36000 (2006) 91700 39000 43300 49100 51500 71300 109000 124000 191000 210000
2020-07-09 19:30 12.46 79000 312000 (1993) 36000 (2006) 91700 39000 43300 49100 51500 71300 109000 124000 191000 210000
2020-07-09 18:30 12.36 78200 312000 (1993) 36000 (2006) 91700 39000 43300 49100 51500 71300 109000 124000 191000 210000
2020-07-09 17:30 12.41 78600 312000 (1993) 36000 (2006) 91700 39000 43300 49100 51500 71300 109000 124000 191000 210000
2020-07-09 16:30 12.46 79000 312000 (1993) 36000 (2006) 91700 39000 43300 49100 51500 71300 109000 124000 191000 210000
2020-07-09 15:30 12.49 79200 312000 (1993) 36000 (2006) 91700 39000 43300 49100 51500 71300 109000 124000 191000 210000
2020-07-09 14:30 12.48 79100 312000 (1993) 36000 (2006) 91700 39000 43300 49100 51500 71300 109000 124000 191000 210000
2020-07-09 13:30 12.55 79700 312000 (1993) 36000 (2006) 91700 39000 43300 49100 51500 71300 109000 124000 191000 210000
2020-07-09 12:30 12.51 79400 312000 (1993) 36000 (2006) 91700 39000 43300 49100 51500 71300 109000 124000 191000 210000
2020-07-09 11:30 12.51 79400 312000 (1993) 36000 (2006) 91700 39000 43300 49100 51500 71300 109000 124000 191000 210000
2020-07-09 10:30 12.49 79200 312000 (1993) 36000 (2006) 91700 39000 43300 49100 51500 71300 109000 124000 191000 210000
2020-07-09 09:30 12.52 79500 312000 (1993) 36000 (2006) 91700 39000 43300 49100 51500 71300 109000 124000 191000 210000
2020-07-09 08:30 12.54 79600 312000 (1993) 36000 (2006) 91700 39000 43300 49100 51500 71300 109000 124000 191000 210000
2020-07-09 07:30 12.57 79900 312000 (1993) 36000 (2006) 91700 39000 43300 49100 51500 71300 109000 124000 191000 210000
2020-07-09 06:30 12.58 80000 312000 (1993) 36000 (2006) 91700 39000 43300 49100 51500 71300 109000 124000 191000 210000
2020-07-09 05:30 12.57 79900 312000 (1993) 36000 (2006) 91700 39000 43300 49100 51500 71300 109000 124000 191000 210000
2020-07-09 04:30 12.58 80000 312000 (1993) 36000 (2006) 91700 39000 43300 49100 51500 71300 109000 124000 191000 210000
2020-07-09 03:30 12.59 80000 312000 (1993) 36000 (2006) 91700 39000 43300 49100 51500 71300 109000 124000 191000 210000
2020-07-09 02:30 12.61 80200 312000 (1993) 36000 (2006) 91700 39000 43300 49100 51500 71300 109000 124000 191000 210000
2020-07-09 01:30 12.61 80200 312000 (1993) 36000 (2006) 91700 39000 43300 49100 51500 71300 109000 124000 191000 210000
2020-07-09 00:30 12.63 80400 312000 (1993) 36000 (2006) 91700 39000 43300 49100 51500 71300 109000 124000 191000 210000
2020-07-08 23:30 12.65 80500 303000 (1993) 36600 (2006) 92700 39300 44400 49500 51800 79000 105000 127000 190000 216000
2020-07-08 22:30 12.65 80500 303000 (1993) 36600 (2006) 92700 39300 44400 49500 51800 79000 105000 127000 190000 216000
2020-07-08 21:30 12.67 80700 303000 (1993) 36600 (2006) 92700 39300 44400 49500 51800 79000 105000 127000 190000 216000
2020-07-08 20:30 12.68 80800 303000 (1993) 36600 (2006) 92700 39300 44400 49500 51800 79000 105000 127000 190000 216000
2020-07-08 19:30 12.68 80800 303000 (1993) 36600 (2006) 92700 39300 44400 49500 51800 79000 105000 127000 190000 216000
2020-07-08 18:30 12.70 80900 303000 (1993) 36600 (2006) 92700 39300 44400 49500 51800 79000 105000 127000 190000 216000
2020-07-08 17:30 12.72 81100 303000 (1993) 36600 (2006) 92700 39300 44400 49500 51800 79000 105000 127000 190000 216000
2020-07-08 16:30 12.71 81000 303000 (1993) 36600 (2006) 92700 39300 44400 49500 51800 79000 105000 127000 190000 216000
2020-07-08 15:30 12.77 81500 303000 (1993) 36600 (2006) 92700 39300 44400 49500 51800 79000 105000 127000 190000 216000
2020-07-08 14:30 12.80 81800 303000 (1993) 36600 (2006) 92700 39300 44400 49500 51800 79000 105000 127000 190000 216000
2020-07-08 13:30 12.83 82000 303000 (1993) 36600 (2006) 92700 39300 44400 49500 51800 79000 105000 127000 190000 216000
2020-07-08 12:30 12.84 82100 303000 (1993) 36600 (2006) 92700 39300 44400 49500 51800 79000 105000 127000 190000 216000
2020-07-08 11:30 12.82 81900 303000 (1993) 36600 (2006) 92700 39300 44400 49500 51800 79000 105000 127000 190000 216000
2020-07-08 10:30 12.81 81900 303000 (1993) 36600 (2006) 92700 39300 44400 49500 51800 79000 105000 127000 190000 216000
2020-07-08 09:30 12.88 82400 303000 (1993) 36600 (2006) 92700 39300 44400 49500 51800 79000 105000 127000 190000 216000
2020-07-08 08:30 12.91 82700 303000 (1993) 36600 (2006) 92700 39300 44400 49500 51800 79000 105000 127000 190000 216000
2020-07-08 07:30 12.94 82900 303000 (1993) 36600 (2006) 92700 39300 44400 49500 51800 79000 105000 127000 190000 216000
2020-07-08 06:30 12.97 83200 303000 (1993) 36600 (2006) 92700 39300 44400 49500 51800 79000 105000 127000 190000 216000
2020-07-08 05:30 12.99 83400 303000 (1993) 36600 (2006) 92700 39300 44400 49500 51800 79000 105000 127000 190000 216000
2020-07-08 04:30 12.99 83400 303000 (1993) 36600 (2006) 92700 39300 44400 49500 51800 79000 105000 127000 190000 216000
2020-07-08 03:30 13.01 83500 303000 (1993) 36600 (2006) 92700 39300 44400 49500 51800 79000 105000 127000 190000 216000
2020-07-08 02:30 13.05 83900 303000 (1993) 36600 (2006) 92700 39300 44400 49500 51800 79000 105000 127000 190000 216000
2020-07-08 01:30 13.08 84100 303000 (1993) 36600 (2006) 92700 39300 44400 49500 51800 79000 105000 127000 190000 216000
2020-07-08 00:30 13.10 84300 303000 (1993) 36600 (2006) 92700 39300 44400 49500 51800 79000 105000 127000 190000 216000

A total of 732 rows are displayed for years 1958 through 2019.